<?xml version="1.0" encoding="UTF-8" standalone="no" ?>
<gpx xmlns="http://www.topografix.com/GPX/1/1" xmlns:xsi="http://www.w3.org/2001/XMLSchema-instance" xsi:schemaLocation="http://www.topografix.com/GPX/1/1 http://www.topografix.com/GPX/1/1/gpx.xsd" version="1.1" creator="VisuGPX - https://www.visugpx.com">
  <metadata>
    <name>Grand Perron des Encombres </name>
  </metadata>
  <trk>
    <name><![CDATA[vttour_19161]]></name>
    <extensions>
      <line xmlns="http://www.topografix.com/GPX/gpx_style/0/2">
        <color>0000FF</color>
        <width>4</width>
      </line>
    </extensions>
    <trkseg>
      <trkpt lat="45.26276" lon="6.46319">
        <ele>1468.5</ele>
        <time>2021-10-26T07:35:23Z</time>
      </trkpt>
      <trkpt lat="45.26293" lon="6.46331">
        <ele>1469.8</ele>
        <time>2021-10-26T07:35:33Z</time>
      </trkpt>
      <trkpt lat="45.26304" lon="6.46351">
        <ele>1470.9</ele>
        <time>2021-10-26T07:35:41Z</time>
      </trkpt>
      <trkpt lat="45.26308" lon="6.46379">
        <ele>1472.7</ele>
        <time>2021-10-26T07:35:50Z</time>
      </trkpt>
      <trkpt lat="45.2631" lon="6.46405">
        <ele>1474.5</ele>
        <time>2021-10-26T07:35:59Z</time>
      </trkpt>
      <trkpt lat="45.26308" lon="6.46432">
        <ele>1476.1</ele>
        <time>2021-10-26T07:36:08Z</time>
      </trkpt>
      <trkpt lat="45.26293" lon="6.46449">
        <ele>1477.7</ele>
        <time>2021-10-26T07:36:18Z</time>
      </trkpt>
      <trkpt lat="45.26274" lon="6.46452">
        <ele>1479.9</ele>
        <time>2021-10-26T07:36:30Z</time>
      </trkpt>
      <trkpt lat="45.26258" lon="6.46462">
        <ele>1481.4</ele>
        <time>2021-10-26T07:36:40Z</time>
      </trkpt>
      <trkpt lat="45.26249" lon="6.46485">
        <ele>1482.2</ele>
        <time>2021-10-26T07:36:48Z</time>
      </trkpt>
      <trkpt lat="45.26246" lon="6.46512">
        <ele>1483.7</ele>
        <time>2021-10-26T07:36:56Z</time>
      </trkpt>
      <trkpt lat="45.26252" lon="6.46537">
        <ele>1485.9</ele>
        <time>2021-10-26T07:37:07Z</time>
      </trkpt>
      <trkpt lat="45.26261" lon="6.46561">
        <ele>1488.7</ele>
        <time>2021-10-26T07:37:18Z</time>
      </trkpt>
      <trkpt lat="45.26265" lon="6.46588">
        <ele>1492</ele>
        <time>2021-10-26T07:37:31Z</time>
      </trkpt>
      <trkpt lat="45.26261" lon="6.46614">
        <ele>1495.8</ele>
        <time>2021-10-26T07:37:47Z</time>
      </trkpt>
      <trkpt lat="45.26247" lon="6.46631">
        <ele>1499</ele>
        <time>2021-10-26T07:38:00Z</time>
      </trkpt>
      <trkpt lat="45.26244" lon="6.46651">
        <ele>1501.5</ele>
        <time>2021-10-26T07:38:11Z</time>
      </trkpt>
      <trkpt lat="45.26263" lon="6.46653">
        <ele>1504.8</ele>
        <time>2021-10-26T07:38:27Z</time>
      </trkpt>
      <trkpt lat="45.26282" lon="6.46656">
        <ele>1508</ele>
        <time>2021-10-26T07:38:42Z</time>
      </trkpt>
      <trkpt lat="45.26302" lon="6.46658">
        <ele>1510.8</ele>
        <time>2021-10-26T07:38:56Z</time>
      </trkpt>
      <trkpt lat="45.2632" lon="6.46659">
        <ele>1513.5</ele>
        <time>2021-10-26T07:39:10Z</time>
      </trkpt>
      <trkpt lat="45.26338" lon="6.46662">
        <ele>1516.4</ele>
        <time>2021-10-26T07:39:23Z</time>
      </trkpt>
      <trkpt lat="45.26356" lon="6.46666">
        <ele>1519.8</ele>
        <time>2021-10-26T07:39:38Z</time>
      </trkpt>
      <trkpt lat="45.26374" lon="6.46671">
        <ele>1523.2</ele>
        <time>2021-10-26T07:39:51Z</time>
      </trkpt>
      <trkpt lat="45.26376" lon="6.46676">
        <ele>1524</ele>
        <time>2021-10-26T07:39:53Z</time>
      </trkpt>
      <trkpt lat="45.26365" lon="6.46692">
        <ele>1526.5</ele>
        <time>2021-10-26T07:40:08Z</time>
      </trkpt>
      <trkpt lat="45.26349" lon="6.46702">
        <ele>1528.9</ele>
        <time>2021-10-26T07:40:24Z</time>
      </trkpt>
      <trkpt lat="45.26335" lon="6.4672">
        <ele>1531.8</ele>
        <time>2021-10-26T07:40:39Z</time>
      </trkpt>
      <trkpt lat="45.26329" lon="6.46732">
        <ele>1533.5</ele>
        <time>2021-10-26T07:40:48Z</time>
      </trkpt>
      <trkpt lat="45.26323" lon="6.46743">
        <ele>1535.1</ele>
        <time>2021-10-26T07:40:55Z</time>
      </trkpt>
      <trkpt lat="45.26327" lon="6.46768">
        <ele>1538</ele>
        <time>2021-10-26T07:41:11Z</time>
      </trkpt>
      <trkpt lat="45.26328" lon="6.4677">
        <ele>1538.3</ele>
        <time>2021-10-26T07:41:13Z</time>
      </trkpt>
      <trkpt lat="45.26343" lon="6.46771">
        <ele>1540.7</ele>
        <time>2021-10-26T07:41:27Z</time>
      </trkpt>
      <trkpt lat="45.26354" lon="6.46759">
        <ele>1542.9</ele>
        <time>2021-10-26T07:41:38Z</time>
      </trkpt>
      <trkpt lat="45.2637" lon="6.46763">
        <ele>1545.6</ele>
        <time>2021-10-26T07:41:54Z</time>
      </trkpt>
      <trkpt lat="45.26373" lon="6.46788">
        <ele>1548.5</ele>
        <time>2021-10-26T07:42:11Z</time>
      </trkpt>
      <trkpt lat="45.26374" lon="6.46792">
        <ele>1549</ele>
        <time>2021-10-26T07:42:13Z</time>
      </trkpt>
      <trkpt lat="45.26376" lon="6.46809">
        <ele>1550.9</ele>
        <time>2021-10-26T07:42:23Z</time>
      </trkpt>
      <trkpt lat="45.26379" lon="6.46829">
        <ele>1553.3</ele>
        <time>2021-10-26T07:42:34Z</time>
      </trkpt>
      <trkpt lat="45.26384" lon="6.46855">
        <ele>1556.4</ele>
        <time>2021-10-26T07:42:48Z</time>
      </trkpt>
      <trkpt lat="45.26389" lon="6.4688">
        <ele>1559.3</ele>
        <time>2021-10-26T07:43:01Z</time>
      </trkpt>
      <trkpt lat="45.26396" lon="6.46906">
        <ele>1562.4</ele>
        <time>2021-10-26T07:43:15Z</time>
      </trkpt>
      <trkpt lat="45.26399" lon="6.46911">
        <ele>1563.2</ele>
        <time>2021-10-26T07:43:19Z</time>
      </trkpt>
      <trkpt lat="45.26407" lon="6.46915">
        <ele>1564.7</ele>
        <time>2021-10-26T07:43:27Z</time>
      </trkpt>
      <trkpt lat="45.2641" lon="6.46913">
        <ele>1565.2</ele>
        <time>2021-10-26T07:43:30Z</time>
      </trkpt>
      <trkpt lat="45.26413" lon="6.46906">
        <ele>1566.1</ele>
        <time>2021-10-26T07:43:35Z</time>
      </trkpt>
      <trkpt lat="45.26418" lon="6.4688">
        <ele>1569.1</ele>
        <time>2021-10-26T07:43:52Z</time>
      </trkpt>
      <trkpt lat="45.26424" lon="6.46856">
        <ele>1572.1</ele>
        <time>2021-10-26T07:44:06Z</time>
      </trkpt>
      <trkpt lat="45.26438" lon="6.46837">
        <ele>1575.2</ele>
        <time>2021-10-26T07:44:20Z</time>
      </trkpt>
      <trkpt lat="45.26453" lon="6.46838">
        <ele>1577.6</ele>
        <time>2021-10-26T07:44:31Z</time>
      </trkpt>
      <trkpt lat="45.26457" lon="6.46845">
        <ele>1578.7</ele>
        <time>2021-10-26T07:44:37Z</time>
      </trkpt>
      <trkpt lat="45.26458" lon="6.46847">
        <ele>1578.9</ele>
        <time>2021-10-26T07:44:38Z</time>
      </trkpt>
      <trkpt lat="45.26455" lon="6.46874">
        <ele>1582</ele>
        <time>2021-10-26T07:44:55Z</time>
      </trkpt>
      <trkpt lat="45.26456" lon="6.469">
        <ele>1585</ele>
        <time>2021-10-26T07:45:07Z</time>
      </trkpt>
      <trkpt lat="45.26462" lon="6.46924">
        <ele>1587.9</ele>
        <time>2021-10-26T07:45:20Z</time>
      </trkpt>
      <trkpt lat="45.26471" lon="6.46948">
        <ele>1590.9</ele>
        <time>2021-10-26T07:45:34Z</time>
      </trkpt>
      <trkpt lat="45.26481" lon="6.4697">
        <ele>1593.9</ele>
        <time>2021-10-26T07:45:48Z</time>
      </trkpt>
      <trkpt lat="45.26492" lon="6.46991">
        <ele>1596.9</ele>
        <time>2021-10-26T07:46:02Z</time>
      </trkpt>
      <trkpt lat="45.26503" lon="6.4701">
        <ele>1599.7</ele>
        <time>2021-10-26T07:46:16Z</time>
      </trkpt>
      <trkpt lat="45.26508" lon="6.47016">
        <ele>1600.8</ele>
        <time>2021-10-26T07:46:21Z</time>
      </trkpt>
      <trkpt lat="45.26521" lon="6.47034">
        <ele>1603.7</ele>
        <time>2021-10-26T07:46:35Z</time>
      </trkpt>
      <trkpt lat="45.26532" lon="6.47055">
        <ele>1606.7</ele>
        <time>2021-10-26T07:46:52Z</time>
      </trkpt>
      <trkpt lat="45.2654" lon="6.47079">
        <ele>1609.8</ele>
        <time>2021-10-26T07:47:06Z</time>
      </trkpt>
      <trkpt lat="45.26548" lon="6.47104">
        <ele>1612.7</ele>
        <time>2021-10-26T07:47:21Z</time>
      </trkpt>
      <trkpt lat="45.26564" lon="6.47103">
        <ele>1615</ele>
        <time>2021-10-26T07:47:36Z</time>
      </trkpt>
      <trkpt lat="45.26573" lon="6.47081">
        <ele>1617.3</ele>
        <time>2021-10-26T07:47:51Z</time>
      </trkpt>
      <trkpt lat="45.26585" lon="6.47059">
        <ele>1619.2</ele>
        <time>2021-10-26T07:48:06Z</time>
      </trkpt>
      <trkpt lat="45.26597" lon="6.4704">
        <ele>1620.8</ele>
        <time>2021-10-26T07:48:21Z</time>
      </trkpt>
      <trkpt lat="45.26606" lon="6.47028">
        <ele>1622</ele>
        <time>2021-10-26T07:49:49Z</time>
      </trkpt>
      <trkpt lat="45.26621" lon="6.47011">
        <ele>1624.1</ele>
        <time>2021-10-26T07:50:02Z</time>
      </trkpt>
      <trkpt lat="45.26629" lon="6.47018">
        <ele>1625.2</ele>
        <time>2021-10-26T07:50:11Z</time>
      </trkpt>
      <trkpt lat="45.2663" lon="6.47025">
        <ele>1625.8</ele>
        <time>2021-10-26T07:50:15Z</time>
      </trkpt>
      <trkpt lat="45.26626" lon="6.47051">
        <ele>1628.2</ele>
        <time>2021-10-26T07:50:29Z</time>
      </trkpt>
      <trkpt lat="45.26623" lon="6.47077">
        <ele>1630.6</ele>
        <time>2021-10-26T07:50:42Z</time>
      </trkpt>
      <trkpt lat="45.26629" lon="6.47086">
        <ele>1631.7</ele>
        <time>2021-10-26T07:50:48Z</time>
      </trkpt>
      <trkpt lat="45.26639" lon="6.47079">
        <ele>1633.2</ele>
        <time>2021-10-26T07:50:56Z</time>
      </trkpt>
      <trkpt lat="45.26652" lon="6.47059">
        <ele>1635.5</ele>
        <time>2021-10-26T07:51:09Z</time>
      </trkpt>
      <trkpt lat="45.26666" lon="6.47042">
        <ele>1637.3</ele>
        <time>2021-10-26T07:51:21Z</time>
      </trkpt>
      <trkpt lat="45.26681" lon="6.47028">
        <ele>1638.7</ele>
        <time>2021-10-26T07:51:33Z</time>
      </trkpt>
      <trkpt lat="45.26698" lon="6.47015">
        <ele>1640</ele>
        <time>2021-10-26T07:51:46Z</time>
      </trkpt>
      <trkpt lat="45.26704" lon="6.47016">
        <ele>1640.5</ele>
        <time>2021-10-26T07:51:51Z</time>
      </trkpt>
      <trkpt lat="45.26698" lon="6.4703">
        <ele>1641.4</ele>
        <time>2021-10-26T07:52:03Z</time>
      </trkpt>
      <trkpt lat="45.26698" lon="6.47046">
        <ele>1642.4</ele>
        <time>2021-10-26T07:52:12Z</time>
      </trkpt>
      <trkpt lat="45.26705" lon="6.47049">
        <ele>1643</ele>
        <time>2021-10-26T07:52:17Z</time>
      </trkpt>
      <trkpt lat="45.26721" lon="6.47034">
        <ele>1644.8</ele>
        <time>2021-10-26T07:52:30Z</time>
      </trkpt>
      <trkpt lat="45.26735" lon="6.47016">
        <ele>1647</ele>
        <time>2021-10-26T07:52:44Z</time>
      </trkpt>
      <trkpt lat="45.26752" lon="6.47007">
        <ele>1649.7</ele>
        <time>2021-10-26T07:52:59Z</time>
      </trkpt>
      <trkpt lat="45.26756" lon="6.47013">
        <ele>1650.8</ele>
        <time>2021-10-26T07:53:06Z</time>
      </trkpt>
      <trkpt lat="45.26758" lon="6.47019">
        <ele>1651.6</ele>
        <time>2021-10-26T07:53:10Z</time>
      </trkpt>
      <trkpt lat="45.26762" lon="6.47026">
        <ele>1652.6</ele>
        <time>2021-10-26T07:53:15Z</time>
      </trkpt>
      <trkpt lat="45.26776" lon="6.47033">
        <ele>1654.9</ele>
        <time>2021-10-26T07:53:26Z</time>
      </trkpt>
      <trkpt lat="45.26794" lon="6.47028">
        <ele>1657.4</ele>
        <time>2021-10-26T07:53:39Z</time>
      </trkpt>
      <trkpt lat="45.26795" lon="6.47028">
        <ele>1657.6</ele>
        <time>2021-10-26T07:53:40Z</time>
      </trkpt>
      <trkpt lat="45.26807" lon="6.47024">
        <ele>1659.1</ele>
        <time>2021-10-26T07:53:51Z</time>
      </trkpt>
      <trkpt lat="45.26825" lon="6.47031">
        <ele>1660.8</ele>
        <time>2021-10-26T07:54:05Z</time>
      </trkpt>
      <trkpt lat="45.26844" lon="6.47035">
        <ele>1662.7</ele>
        <time>2021-10-26T07:54:17Z</time>
      </trkpt>
      <trkpt lat="45.26863" lon="6.47035">
        <ele>1664.8</ele>
        <time>2021-10-26T07:54:29Z</time>
      </trkpt>
      <trkpt lat="45.26881" lon="6.47037">
        <ele>1666.5</ele>
        <time>2021-10-26T07:54:41Z</time>
      </trkpt>
      <trkpt lat="45.26898" lon="6.47047">
        <ele>1669</ele>
        <time>2021-10-26T07:54:55Z</time>
      </trkpt>
      <trkpt lat="45.26916" lon="6.47056">
        <ele>1671.3</ele>
        <time>2021-10-26T07:55:09Z</time>
      </trkpt>
      <trkpt lat="45.26933" lon="6.47066">
        <ele>1672.9</ele>
        <time>2021-10-26T07:55:21Z</time>
      </trkpt>
      <trkpt lat="45.26945" lon="6.47086">
        <ele>1674.5</ele>
        <time>2021-10-26T07:55:33Z</time>
      </trkpt>
      <trkpt lat="45.26948" lon="6.47114">
        <ele>1676.3</ele>
        <time>2021-10-26T07:55:44Z</time>
      </trkpt>
      <trkpt lat="45.2696" lon="6.47132">
        <ele>1678.3</ele>
        <time>2021-10-26T07:55:55Z</time>
      </trkpt>
      <trkpt lat="45.26978" lon="6.47138">
        <ele>1680.2</ele>
        <time>2021-10-26T07:56:05Z</time>
      </trkpt>
      <trkpt lat="45.26998" lon="6.47143">
        <ele>1682.2</ele>
        <time>2021-10-26T07:56:14Z</time>
      </trkpt>
      <trkpt lat="45.27016" lon="6.47139">
        <ele>1683.7</ele>
        <time>2021-10-26T07:56:22Z</time>
      </trkpt>
      <trkpt lat="45.27031" lon="6.4712">
        <ele>1685</ele>
        <time>2021-10-26T07:56:30Z</time>
      </trkpt>
      <trkpt lat="45.27035" lon="6.47095">
        <ele>1686.2</ele>
        <time>2021-10-26T07:56:38Z</time>
      </trkpt>
      <trkpt lat="45.27023" lon="6.47075">
        <ele>1688.4</ele>
        <time>2021-10-26T07:56:49Z</time>
      </trkpt>
      <trkpt lat="45.27007" lon="6.47062">
        <ele>1691.2</ele>
        <time>2021-10-26T07:57:01Z</time>
      </trkpt>
      <trkpt lat="45.26995" lon="6.47043">
        <ele>1693.8</ele>
        <time>2021-10-26T07:57:13Z</time>
      </trkpt>
      <trkpt lat="45.27006" lon="6.47027">
        <ele>1698.2</ele>
        <time>2021-10-26T07:57:27Z</time>
      </trkpt>
      <trkpt lat="45.27012" lon="6.47029">
        <ele>1699.2</ele>
        <time>2021-10-26T07:57:32Z</time>
      </trkpt>
      <trkpt lat="45.27028" lon="6.47044">
        <ele>1702.1</ele>
        <time>2021-10-26T07:57:46Z</time>
      </trkpt>
      <trkpt lat="45.27043" lon="6.47036">
        <ele>1703.9</ele>
        <time>2021-10-26T07:57:58Z</time>
      </trkpt>
      <trkpt lat="45.27045" lon="6.47031">
        <ele>1704.2</ele>
        <time>2021-10-26T07:58:00Z</time>
      </trkpt>
      <trkpt lat="45.27044" lon="6.47004">
        <ele>1705.6</ele>
        <time>2021-10-26T07:58:09Z</time>
      </trkpt>
      <trkpt lat="45.27045" lon="6.46977">
        <ele>1707.8</ele>
        <time>2021-10-26T07:58:21Z</time>
      </trkpt>
      <trkpt lat="45.27051" lon="6.46953">
        <ele>1710.7</ele>
        <time>2021-10-26T07:58:33Z</time>
      </trkpt>
      <trkpt lat="45.27061" lon="6.46931">
        <ele>1713.8</ele>
        <time>2021-10-26T07:58:46Z</time>
      </trkpt>
      <trkpt lat="45.27073" lon="6.4691">
        <ele>1717</ele>
        <time>2021-10-26T07:59:00Z</time>
      </trkpt>
      <trkpt lat="45.27087" lon="6.46894">
        <ele>1719.9</ele>
        <time>2021-10-26T07:59:13Z</time>
      </trkpt>
      <trkpt lat="45.27101" lon="6.46888">
        <ele>1722</ele>
        <time>2021-10-26T07:59:24Z</time>
      </trkpt>
      <trkpt lat="45.27111" lon="6.46886">
        <ele>1723.6</ele>
        <time>2021-10-26T07:59:32Z</time>
      </trkpt>
      <trkpt lat="45.27129" lon="6.46883">
        <ele>1726.1</ele>
        <time>2021-10-26T07:59:46Z</time>
      </trkpt>
      <trkpt lat="45.27147" lon="6.46885">
        <ele>1728.4</ele>
        <time>2021-10-26T07:59:59Z</time>
      </trkpt>
      <trkpt lat="45.27166" lon="6.4689">
        <ele>1730.2</ele>
        <time>2021-10-26T08:00:11Z</time>
      </trkpt>
      <trkpt lat="45.27184" lon="6.46896">
        <ele>1732.1</ele>
        <time>2021-10-26T08:00:24Z</time>
      </trkpt>
      <trkpt lat="45.27202" lon="6.46902">
        <ele>1733.8</ele>
        <time>2021-10-26T08:00:35Z</time>
      </trkpt>
      <trkpt lat="45.2722" lon="6.46913">
        <ele>1735.9</ele>
        <time>2021-10-26T08:00:47Z</time>
      </trkpt>
      <trkpt lat="45.27235" lon="6.46929">
        <ele>1738.2</ele>
        <time>2021-10-26T08:01:00Z</time>
      </trkpt>
      <trkpt lat="45.27238" lon="6.46933">
        <ele>1738.7</ele>
        <time>2021-10-26T08:01:03Z</time>
      </trkpt>
      <trkpt lat="45.27255" lon="6.46937">
        <ele>1741.1</ele>
        <time>2021-10-26T08:03:04Z</time>
      </trkpt>
      <trkpt lat="45.27274" lon="6.46943">
        <ele>1743.6</ele>
        <time>2021-10-26T08:03:17Z</time>
      </trkpt>
      <trkpt lat="45.27288" lon="6.46962">
        <ele>1745.8</ele>
        <time>2021-10-26T08:03:30Z</time>
      </trkpt>
      <trkpt lat="45.27301" lon="6.4698">
        <ele>1747.8</ele>
        <time>2021-10-26T08:03:43Z</time>
      </trkpt>
      <trkpt lat="45.27318" lon="6.46992">
        <ele>1749.4</ele>
        <time>2021-10-26T08:03:56Z</time>
      </trkpt>
      <trkpt lat="45.27334" lon="6.47005">
        <ele>1750.5</ele>
        <time>2021-10-26T08:04:08Z</time>
      </trkpt>
      <trkpt lat="45.2735" lon="6.47016">
        <ele>1752</ele>
        <time>2021-10-26T08:04:19Z</time>
      </trkpt>
      <trkpt lat="45.27352" lon="6.47017">
        <ele>1752.2</ele>
        <time>2021-10-26T08:04:20Z</time>
      </trkpt>
      <trkpt lat="45.27365" lon="6.4701">
        <ele>1753.4</ele>
        <time>2021-10-26T08:04:29Z</time>
      </trkpt>
      <trkpt lat="45.27384" lon="6.47001">
        <ele>1755</ele>
        <time>2021-10-26T08:04:40Z</time>
      </trkpt>
      <trkpt lat="45.27392" lon="6.46978">
        <ele>1756.9</ele>
        <time>2021-10-26T08:04:50Z</time>
      </trkpt>
      <trkpt lat="45.274" lon="6.46954">
        <ele>1759.2</ele>
        <time>2021-10-26T08:05:01Z</time>
      </trkpt>
      <trkpt lat="45.27414" lon="6.46935">
        <ele>1761.6</ele>
        <time>2021-10-26T08:05:12Z</time>
      </trkpt>
      <trkpt lat="45.27419" lon="6.46909">
        <ele>1763.9</ele>
        <time>2021-10-26T08:05:23Z</time>
      </trkpt>
      <trkpt lat="45.27421" lon="6.46884">
        <ele>1766.3</ele>
        <time>2021-10-26T08:05:35Z</time>
      </trkpt>
      <trkpt lat="45.2743" lon="6.46861">
        <ele>1768.4</ele>
        <time>2021-10-26T08:05:47Z</time>
      </trkpt>
      <trkpt lat="45.27439" lon="6.46849">
        <ele>1769.2</ele>
        <time>2021-10-26T08:06:33Z</time>
      </trkpt>
      <trkpt lat="45.27455" lon="6.46839">
        <ele>1771.1</ele>
        <time>2021-10-26T08:06:43Z</time>
      </trkpt>
      <trkpt lat="45.27457" lon="6.46839">
        <ele>1771.3</ele>
        <time>2021-10-26T08:06:44Z</time>
      </trkpt>
      <trkpt lat="45.27473" lon="6.4684">
        <ele>1773.4</ele>
        <time>2021-10-26T08:06:52Z</time>
      </trkpt>
      <trkpt lat="45.27485" lon="6.46846">
        <ele>1775.6</ele>
        <time>2021-10-26T08:07:01Z</time>
      </trkpt>
      <trkpt lat="45.27491" lon="6.4685">
        <ele>1776.7</ele>
        <time>2021-10-26T08:07:07Z</time>
      </trkpt>
      <trkpt lat="45.27499" lon="6.46857">
        <ele>1778</ele>
        <time>2021-10-26T08:07:14Z</time>
      </trkpt>
      <trkpt lat="45.27502" lon="6.46874">
        <ele>1779.5</ele>
        <time>2021-10-26T08:07:31Z</time>
      </trkpt>
      <trkpt lat="45.27508" lon="6.46885">
        <ele>1780.6</ele>
        <time>2021-10-26T08:07:38Z</time>
      </trkpt>
      <trkpt lat="45.27502" lon="6.46897">
        <ele>1781.6</ele>
        <time>2021-10-26T08:07:45Z</time>
      </trkpt>
      <trkpt lat="45.2749" lon="6.46917">
        <ele>1783.5</ele>
        <time>2021-10-26T08:07:58Z</time>
      </trkpt>
      <trkpt lat="45.27489" lon="6.46918">
        <ele>1783.7</ele>
        <time>2021-10-26T08:07:59Z</time>
      </trkpt>
      <trkpt lat="45.27481" lon="6.46941">
        <ele>1786</ele>
        <time>2021-10-26T08:08:12Z</time>
      </trkpt>
      <trkpt lat="45.2748" lon="6.46959">
        <ele>1787.7</ele>
        <time>2021-10-26T08:08:21Z</time>
      </trkpt>
      <trkpt lat="45.2749" lon="6.46965">
        <ele>1789.2</ele>
        <time>2021-10-26T08:08:30Z</time>
      </trkpt>
      <trkpt lat="45.27505" lon="6.46948">
        <ele>1791.5</ele>
        <time>2021-10-26T08:08:44Z</time>
      </trkpt>
      <trkpt lat="45.27523" lon="6.4694">
        <ele>1793.6</ele>
        <time>2021-10-26T08:08:59Z</time>
      </trkpt>
      <trkpt lat="45.27541" lon="6.46938">
        <ele>1795.7</ele>
        <time>2021-10-26T08:09:13Z</time>
      </trkpt>
      <trkpt lat="45.27559" lon="6.46931">
        <ele>1797.2</ele>
        <time>2021-10-26T08:09:27Z</time>
      </trkpt>
      <trkpt lat="45.27576" lon="6.46922">
        <ele>1798.9</ele>
        <time>2021-10-26T08:09:40Z</time>
      </trkpt>
      <trkpt lat="45.27583" lon="6.46925">
        <ele>1799.9</ele>
        <time>2021-10-26T08:09:46Z</time>
      </trkpt>
      <trkpt lat="45.27585" lon="6.46931">
        <ele>1800.6</ele>
        <time>2021-10-26T08:09:50Z</time>
      </trkpt>
      <trkpt lat="45.27585" lon="6.46932">
        <ele>1800.8</ele>
        <time>2021-10-26T08:09:51Z</time>
      </trkpt>
      <trkpt lat="45.27584" lon="6.46935">
        <ele>1801.1</ele>
        <time>2021-10-26T08:09:53Z</time>
      </trkpt>
      <trkpt lat="45.2758" lon="6.46942">
        <ele>1802.1</ele>
        <time>2021-10-26T08:09:59Z</time>
      </trkpt>
      <trkpt lat="45.27567" lon="6.46962">
        <ele>1804.9</ele>
        <time>2021-10-26T08:10:14Z</time>
      </trkpt>
      <trkpt lat="45.27558" lon="6.46985">
        <ele>1807.2</ele>
        <time>2021-10-26T08:10:29Z</time>
      </trkpt>
      <trkpt lat="45.27549" lon="6.47009">
        <ele>1809.3</ele>
        <time>2021-10-26T08:10:44Z</time>
      </trkpt>
      <trkpt lat="45.27544" lon="6.47034">
        <ele>1811.7</ele>
        <time>2021-10-26T08:10:58Z</time>
      </trkpt>
      <trkpt lat="45.27539" lon="6.47059">
        <ele>1813.8</ele>
        <time>2021-10-26T08:11:12Z</time>
      </trkpt>
      <trkpt lat="45.27538" lon="6.47084">
        <ele>1815.7</ele>
        <time>2021-10-26T08:11:26Z</time>
      </trkpt>
      <trkpt lat="45.27555" lon="6.47083">
        <ele>1817.9</ele>
        <time>2021-10-26T08:11:39Z</time>
      </trkpt>
      <trkpt lat="45.27571" lon="6.47071">
        <ele>1820.9</ele>
        <time>2021-10-26T08:11:54Z</time>
      </trkpt>
      <trkpt lat="45.27588" lon="6.4706">
        <ele>1824.2</ele>
        <time>2021-10-26T08:12:09Z</time>
      </trkpt>
      <trkpt lat="45.27603" lon="6.47044">
        <ele>1827.7</ele>
        <time>2021-10-26T08:12:24Z</time>
      </trkpt>
      <trkpt lat="45.27606" lon="6.47041">
        <ele>1828.3</ele>
        <time>2021-10-26T08:12:27Z</time>
      </trkpt>
      <trkpt lat="45.2761" lon="6.47036">
        <ele>1829.3</ele>
        <time>2021-10-26T08:12:32Z</time>
      </trkpt>
      <trkpt lat="45.27623" lon="6.47018">
        <ele>1832.2</ele>
        <time>2021-10-26T08:12:47Z</time>
      </trkpt>
      <trkpt lat="45.27629" lon="6.47016">
        <ele>1833.2</ele>
        <time>2021-10-26T08:12:53Z</time>
      </trkpt>
      <trkpt lat="45.27629" lon="6.47033">
        <ele>1835.1</ele>
        <time>2021-10-26T08:13:06Z</time>
      </trkpt>
      <trkpt lat="45.27629" lon="6.47044">
        <ele>1836.4</ele>
        <time>2021-10-26T08:13:13Z</time>
      </trkpt>
      <trkpt lat="45.27633" lon="6.47068">
        <ele>1839.5</ele>
        <time>2021-10-26T08:13:29Z</time>
      </trkpt>
      <trkpt lat="45.27636" lon="6.47093">
        <ele>1842.2</ele>
        <time>2021-10-26T08:13:45Z</time>
      </trkpt>
      <trkpt lat="45.27632" lon="6.47108">
        <ele>1843.6</ele>
        <time>2021-10-26T08:13:55Z</time>
      </trkpt>
      <trkpt lat="45.2763" lon="6.47121">
        <ele>1844.7</ele>
        <time>2021-10-26T08:14:04Z</time>
      </trkpt>
      <trkpt lat="45.27622" lon="6.47145">
        <ele>1846.8</ele>
        <time>2021-10-26T08:14:20Z</time>
      </trkpt>
      <trkpt lat="45.27618" lon="6.47152">
        <ele>1847.6</ele>
        <time>2021-10-26T08:14:25Z</time>
      </trkpt>
      <trkpt lat="45.27607" lon="6.47173">
        <ele>1849.9</ele>
        <time>2021-10-26T08:14:40Z</time>
      </trkpt>
      <trkpt lat="45.276" lon="6.47196">
        <ele>1852.3</ele>
        <time>2021-10-26T08:14:55Z</time>
      </trkpt>
      <trkpt lat="45.27592" lon="6.47219">
        <ele>1855.4</ele>
        <time>2021-10-26T08:15:10Z</time>
      </trkpt>
      <trkpt lat="45.27583" lon="6.47243">
        <ele>1859</ele>
        <time>2021-10-26T08:15:25Z</time>
      </trkpt>
      <trkpt lat="45.27575" lon="6.47266">
        <ele>1862</ele>
        <time>2021-10-26T08:15:41Z</time>
      </trkpt>
      <trkpt lat="45.27574" lon="6.47269">
        <ele>1862.3</ele>
        <time>2021-10-26T08:15:43Z</time>
      </trkpt>
      <trkpt lat="45.27571" lon="6.47279">
        <ele>1863.5</ele>
        <time>2021-10-26T08:15:50Z</time>
      </trkpt>
      <trkpt lat="45.2757" lon="6.47286">
        <ele>1864.3</ele>
        <time>2021-10-26T08:15:55Z</time>
      </trkpt>
      <trkpt lat="45.2756" lon="6.47309">
        <ele>1867.3</ele>
        <time>2021-10-26T08:16:12Z</time>
      </trkpt>
      <trkpt lat="45.27555" lon="6.4732">
        <ele>1868.6</ele>
        <time>2021-10-26T08:16:19Z</time>
      </trkpt>
      <trkpt lat="45.27565" lon="6.47337">
        <ele>1871.7</ele>
        <time>2021-10-26T08:16:33Z</time>
      </trkpt>
      <trkpt lat="45.27568" lon="6.47337">
        <ele>1872.1</ele>
        <time>2021-10-26T08:16:35Z</time>
      </trkpt>
      <trkpt lat="45.27585" lon="6.47327">
        <ele>1874.3</ele>
        <time>2021-10-26T08:16:49Z</time>
      </trkpt>
      <trkpt lat="45.27602" lon="6.47317">
        <ele>1876.2</ele>
        <time>2021-10-26T08:17:03Z</time>
      </trkpt>
      <trkpt lat="45.27621" lon="6.47318">
        <ele>1877.7</ele>
        <time>2021-10-26T08:17:16Z</time>
      </trkpt>
      <trkpt lat="45.27639" lon="6.47332">
        <ele>1878.9</ele>
        <time>2021-10-26T08:17:28Z</time>
      </trkpt>
      <trkpt lat="45.27655" lon="6.47346">
        <ele>1880.6</ele>
        <time>2021-10-26T08:17:40Z</time>
      </trkpt>
      <trkpt lat="45.2767" lon="6.4736">
        <ele>1882.2</ele>
        <time>2021-10-26T08:17:52Z</time>
      </trkpt>
      <trkpt lat="45.27688" lon="6.47371">
        <ele>1883.7</ele>
        <time>2021-10-26T08:18:04Z</time>
      </trkpt>
      <trkpt lat="45.27706" lon="6.47373">
        <ele>1885.4</ele>
        <time>2021-10-26T08:18:15Z</time>
      </trkpt>
      <trkpt lat="45.27724" lon="6.47371">
        <ele>1887</ele>
        <time>2021-10-26T08:18:26Z</time>
      </trkpt>
      <trkpt lat="45.27742" lon="6.47371">
        <ele>1888.6</ele>
        <time>2021-10-26T08:18:37Z</time>
      </trkpt>
      <trkpt lat="45.2776" lon="6.4737">
        <ele>1890.2</ele>
        <time>2021-10-26T08:18:48Z</time>
      </trkpt>
      <trkpt lat="45.27779" lon="6.4737">
        <ele>1891.8</ele>
        <time>2021-10-26T08:18:59Z</time>
      </trkpt>
      <trkpt lat="45.27798" lon="6.4737">
        <ele>1892.9</ele>
        <time>2021-10-26T08:19:10Z</time>
      </trkpt>
      <trkpt lat="45.27816" lon="6.47362">
        <ele>1894.1</ele>
        <time>2021-10-26T08:19:21Z</time>
      </trkpt>
      <trkpt lat="45.27823" lon="6.47337">
        <ele>1895.6</ele>
        <time>2021-10-26T08:19:32Z</time>
      </trkpt>
      <trkpt lat="45.27816" lon="6.47312">
        <ele>1897.4</ele>
        <time>2021-10-26T08:19:44Z</time>
      </trkpt>
      <trkpt lat="45.27816" lon="6.47286">
        <ele>1899.6</ele>
        <time>2021-10-26T08:19:56Z</time>
      </trkpt>
      <trkpt lat="45.2782" lon="6.4726">
        <ele>1902.1</ele>
        <time>2021-10-26T08:20:09Z</time>
      </trkpt>
      <trkpt lat="45.27823" lon="6.47234">
        <ele>1905.2</ele>
        <time>2021-10-26T08:20:22Z</time>
      </trkpt>
      <trkpt lat="45.27836" lon="6.47215">
        <ele>1908.3</ele>
        <time>2021-10-26T08:20:36Z</time>
      </trkpt>
      <trkpt lat="45.27846" lon="6.47192">
        <ele>1910.9</ele>
        <time>2021-10-26T08:20:50Z</time>
      </trkpt>
      <trkpt lat="45.27852" lon="6.47167">
        <ele>1913.4</ele>
        <time>2021-10-26T08:21:04Z</time>
      </trkpt>
      <trkpt lat="45.2787" lon="6.47161">
        <ele>1917.2</ele>
        <time>2021-10-26T08:21:21Z</time>
      </trkpt>
      <trkpt lat="45.27888" lon="6.47165">
        <ele>1920.3</ele>
        <time>2021-10-26T08:21:36Z</time>
      </trkpt>
      <trkpt lat="45.27901" lon="6.47183">
        <ele>1922.8</ele>
        <time>2021-10-26T08:21:51Z</time>
      </trkpt>
      <trkpt lat="45.27913" lon="6.47204">
        <ele>1925.1</ele>
        <time>2021-10-26T08:22:05Z</time>
      </trkpt>
      <trkpt lat="45.27925" lon="6.47226">
        <ele>1927.1</ele>
        <time>2021-10-26T08:22:19Z</time>
      </trkpt>
      <trkpt lat="45.27935" lon="6.47249">
        <ele>1929.3</ele>
        <time>2021-10-26T08:22:33Z</time>
      </trkpt>
      <trkpt lat="45.27939" lon="6.47273">
        <ele>1931.9</ele>
        <time>2021-10-26T08:22:47Z</time>
      </trkpt>
      <trkpt lat="45.27936" lon="6.47298">
        <ele>1935</ele>
        <time>2021-10-26T08:23:01Z</time>
      </trkpt>
      <trkpt lat="45.27945" lon="6.47321">
        <ele>1938.5</ele>
        <time>2021-10-26T08:23:16Z</time>
      </trkpt>
      <trkpt lat="45.27957" lon="6.47342">
        <ele>1941.7</ele>
        <time>2021-10-26T08:23:31Z</time>
      </trkpt>
      <trkpt lat="45.27959" lon="6.47368">
        <ele>1944.3</ele>
        <time>2021-10-26T08:23:47Z</time>
      </trkpt>
      <trkpt lat="45.2796" lon="6.47394">
        <ele>1947.1</ele>
        <time>2021-10-26T08:24:02Z</time>
      </trkpt>
      <trkpt lat="45.2796" lon="6.4742">
        <ele>1949.9</ele>
        <time>2021-10-26T08:24:17Z</time>
      </trkpt>
      <trkpt lat="45.27966" lon="6.47446">
        <ele>1952.9</ele>
        <time>2021-10-26T08:24:32Z</time>
      </trkpt>
      <trkpt lat="45.27973" lon="6.47471">
        <ele>1955.9</ele>
        <time>2021-10-26T08:24:48Z</time>
      </trkpt>
      <trkpt lat="45.27985" lon="6.47492">
        <ele>1958.8</ele>
        <time>2021-10-26T08:25:04Z</time>
      </trkpt>
      <trkpt lat="45.27996" lon="6.47513">
        <ele>1961.6</ele>
        <time>2021-10-26T08:25:20Z</time>
      </trkpt>
      <trkpt lat="45.28" lon="6.47538">
        <ele>1964.4</ele>
        <time>2021-10-26T08:25:35Z</time>
      </trkpt>
      <trkpt lat="45.28006" lon="6.47564">
        <ele>1966.8</ele>
        <time>2021-10-26T08:25:49Z</time>
      </trkpt>
      <trkpt lat="45.2801" lon="6.47589">
        <ele>1968.7</ele>
        <time>2021-10-26T08:26:02Z</time>
      </trkpt>
      <trkpt lat="45.28015" lon="6.47615">
        <ele>1971</ele>
        <time>2021-10-26T08:26:15Z</time>
      </trkpt>
      <trkpt lat="45.28027" lon="6.47633">
        <ele>1973.8</ele>
        <time>2021-10-26T08:26:29Z</time>
      </trkpt>
      <trkpt lat="45.2803" lon="6.47631">
        <ele>1974.4</ele>
        <time>2021-10-26T08:26:32Z</time>
      </trkpt>
      <trkpt lat="45.28032" lon="6.47606">
        <ele>1977.2</ele>
        <time>2021-10-26T08:26:47Z</time>
      </trkpt>
      <trkpt lat="45.28032" lon="6.47604">
        <ele>1977.4</ele>
        <time>2021-10-26T08:26:48Z</time>
      </trkpt>
      <trkpt lat="45.28036" lon="6.47582">
        <ele>1979.8</ele>
        <time>2021-10-26T08:27:03Z</time>
      </trkpt>
      <trkpt lat="45.28045" lon="6.47601">
        <ele>1982.2</ele>
        <time>2021-10-26T08:27:20Z</time>
      </trkpt>
      <trkpt lat="45.28054" lon="6.47625">
        <ele>1984.8</ele>
        <time>2021-10-26T08:27:34Z</time>
      </trkpt>
      <trkpt lat="45.28059" lon="6.4765">
        <ele>1987.1</ele>
        <time>2021-10-26T08:27:48Z</time>
      </trkpt>
      <trkpt lat="45.28064" lon="6.47675">
        <ele>1989.6</ele>
        <time>2021-10-26T08:28:02Z</time>
      </trkpt>
      <trkpt lat="45.28069" lon="6.477">
        <ele>1992.6</ele>
        <time>2021-10-26T08:28:17Z</time>
      </trkpt>
      <trkpt lat="45.28071" lon="6.47727">
        <ele>1995.5</ele>
        <time>2021-10-26T08:28:33Z</time>
      </trkpt>
      <trkpt lat="45.28072" lon="6.47753">
        <ele>1998.4</ele>
        <time>2021-10-26T08:28:48Z</time>
      </trkpt>
      <trkpt lat="45.28078" lon="6.47777">
        <ele>2001.5</ele>
        <time>2021-10-26T08:29:03Z</time>
      </trkpt>
      <trkpt lat="45.28091" lon="6.47795">
        <ele>2005.1</ele>
        <time>2021-10-26T08:29:18Z</time>
      </trkpt>
      <trkpt lat="45.28106" lon="6.47812">
        <ele>2007.6</ele>
        <time>2021-10-26T08:29:33Z</time>
      </trkpt>
      <trkpt lat="45.28122" lon="6.47825">
        <ele>2009</ele>
        <time>2021-10-26T08:29:48Z</time>
      </trkpt>
      <trkpt lat="45.2814" lon="6.47835">
        <ele>2010.5</ele>
        <time>2021-10-26T08:30:04Z</time>
      </trkpt>
      <trkpt lat="45.28158" lon="6.47838">
        <ele>2011.9</ele>
        <time>2021-10-26T08:30:19Z</time>
      </trkpt>
      <trkpt lat="45.28166" lon="6.47816">
        <ele>2011.9</ele>
        <time>2021-10-26T08:30:32Z</time>
      </trkpt>
      <trkpt lat="45.28159" lon="6.47791">
        <ele>2011.5</ele>
        <time>2021-10-26T08:30:45Z</time>
      </trkpt>
      <trkpt lat="45.28152" lon="6.47767">
        <ele>2011.4</ele>
        <time>2021-10-26T08:30:58Z</time>
      </trkpt>
      <trkpt lat="45.28165" lon="6.47754">
        <ele>2011.8</ele>
        <time>2021-10-26T08:31:13Z</time>
      </trkpt>
      <trkpt lat="45.28181" lon="6.47766">
        <ele>2016.9</ele>
        <time>2021-10-26T08:31:28Z</time>
      </trkpt>
      <trkpt lat="45.28199" lon="6.47766">
        <ele>2020.5</ele>
        <time>2021-10-26T08:31:42Z</time>
      </trkpt>
      <trkpt lat="45.28215" lon="6.47755">
        <ele>2023</ele>
        <time>2021-10-26T08:31:55Z</time>
      </trkpt>
      <trkpt lat="45.28228" lon="6.47735">
        <ele>2025.8</ele>
        <time>2021-10-26T08:32:10Z</time>
      </trkpt>
      <trkpt lat="45.28243" lon="6.47721">
        <ele>2029.6</ele>
        <time>2021-10-26T08:32:26Z</time>
      </trkpt>
      <trkpt lat="45.28253" lon="6.47738">
        <ele>2033.2</ele>
        <time>2021-10-26T08:32:45Z</time>
      </trkpt>
      <trkpt lat="45.28255" lon="6.47764">
        <ele>2037</ele>
        <time>2021-10-26T08:33:01Z</time>
      </trkpt>
      <trkpt lat="45.28257" lon="6.47775">
        <ele>2038.9</ele>
        <time>2021-10-26T08:33:08Z</time>
      </trkpt>
      <trkpt lat="45.28269" lon="6.47794">
        <ele>2042.7</ele>
        <time>2021-10-26T08:33:24Z</time>
      </trkpt>
      <trkpt lat="45.28285" lon="6.47808">
        <ele>2046.3</ele>
        <time>2021-10-26T08:33:41Z</time>
      </trkpt>
      <trkpt lat="45.28296" lon="6.47807">
        <ele>2048.7</ele>
        <time>2021-10-26T08:33:51Z</time>
      </trkpt>
      <trkpt lat="45.28304" lon="6.47784">
        <ele>2052</ele>
        <time>2021-10-26T08:34:07Z</time>
      </trkpt>
      <trkpt lat="45.28312" lon="6.4776">
        <ele>2053.9</ele>
        <time>2021-10-26T08:34:21Z</time>
      </trkpt>
      <trkpt lat="45.28322" lon="6.47737">
        <ele>2056.2</ele>
        <time>2021-10-26T08:34:34Z</time>
      </trkpt>
      <trkpt lat="45.28331" lon="6.47713">
        <ele>2058.6</ele>
        <time>2021-10-26T08:34:48Z</time>
      </trkpt>
      <trkpt lat="45.28343" lon="6.47692">
        <ele>2060.5</ele>
        <time>2021-10-26T08:35:02Z</time>
      </trkpt>
      <trkpt lat="45.28355" lon="6.47672">
        <ele>2062</ele>
        <time>2021-10-26T08:35:13Z</time>
      </trkpt>
      <trkpt lat="45.28365" lon="6.47651">
        <ele>2064.3</ele>
        <time>2021-10-26T08:35:25Z</time>
      </trkpt>
      <trkpt lat="45.28376" lon="6.4763">
        <ele>2066.6</ele>
        <time>2021-10-26T08:35:37Z</time>
      </trkpt>
      <trkpt lat="45.28388" lon="6.47609">
        <ele>2068.3</ele>
        <time>2021-10-26T08:35:50Z</time>
      </trkpt>
      <trkpt lat="45.28396" lon="6.47585">
        <ele>2070</ele>
        <time>2021-10-26T08:36:01Z</time>
      </trkpt>
      <trkpt lat="45.28395" lon="6.47559">
        <ele>2071.4</ele>
        <time>2021-10-26T08:36:12Z</time>
      </trkpt>
      <trkpt lat="45.28396" lon="6.47532">
        <ele>2071.3</ele>
        <time>2021-10-26T08:36:19Z</time>
      </trkpt>
      <trkpt lat="45.28402" lon="6.47502">
        <ele>2070.5</ele>
        <time>2021-10-26T08:36:23Z</time>
      </trkpt>
      <trkpt lat="45.28403" lon="6.47494">
        <ele>2070.6</ele>
        <time>2021-10-26T08:36:24Z</time>
      </trkpt>
      <trkpt lat="45.28403" lon="6.47469">
        <ele>2071.2</ele>
        <time>2021-10-26T08:36:28Z</time>
      </trkpt>
      <trkpt lat="45.28403" lon="6.47443">
        <ele>2072.3</ele>
        <time>2021-10-26T08:36:35Z</time>
      </trkpt>
      <trkpt lat="45.28394" lon="6.47417">
        <ele>2074.3</ele>
        <time>2021-10-26T08:36:44Z</time>
      </trkpt>
      <trkpt lat="45.28389" lon="6.47392">
        <ele>2074.4</ele>
        <time>2021-10-26T08:36:56Z</time>
      </trkpt>
      <trkpt lat="45.28383" lon="6.47368">
        <ele>2074.9</ele>
        <time>2021-10-26T08:37:10Z</time>
      </trkpt>
      <trkpt lat="45.28379" lon="6.47342">
        <ele>2075.4</ele>
        <time>2021-10-26T08:37:26Z</time>
      </trkpt>
      <trkpt lat="45.28368" lon="6.4732">
        <ele>2075.5</ele>
        <time>2021-10-26T08:37:42Z</time>
      </trkpt>
      <trkpt lat="45.28356" lon="6.473">
        <ele>2075.7</ele>
        <time>2021-10-26T08:37:57Z</time>
      </trkpt>
      <trkpt lat="45.28349" lon="6.47274">
        <ele>2075.8</ele>
        <time>2021-10-26T08:38:12Z</time>
      </trkpt>
      <trkpt lat="45.28342" lon="6.4725">
        <ele>2075.4</ele>
        <time>2021-10-26T08:38:25Z</time>
      </trkpt>
      <trkpt lat="45.28335" lon="6.47228">
        <ele>2075.2</ele>
        <time>2021-10-26T08:38:38Z</time>
      </trkpt>
      <trkpt lat="45.28348" lon="6.47224">
        <ele>2075.1</ele>
        <time>2021-10-26T08:40:01Z</time>
      </trkpt>
      <trkpt lat="45.28364" lon="6.47236">
        <ele>2078.1</ele>
        <time>2021-10-26T08:40:13Z</time>
      </trkpt>
      <trkpt lat="45.2838" lon="6.47251">
        <ele>2081.7</ele>
        <time>2021-10-26T08:40:27Z</time>
      </trkpt>
      <trkpt lat="45.28397" lon="6.47261">
        <ele>2085</ele>
        <time>2021-10-26T08:40:40Z</time>
      </trkpt>
      <trkpt lat="45.28414" lon="6.47271">
        <ele>2088.9</ele>
        <time>2021-10-26T08:40:54Z</time>
      </trkpt>
      <trkpt lat="45.28432" lon="6.4728">
        <ele>2093</ele>
        <time>2021-10-26T08:41:09Z</time>
      </trkpt>
      <trkpt lat="45.28441" lon="6.47283">
        <ele>2094.8</ele>
        <time>2021-10-26T08:41:18Z</time>
      </trkpt>
      <trkpt lat="45.28449" lon="6.47289">
        <ele>2097</ele>
        <time>2021-10-26T08:41:27Z</time>
      </trkpt>
      <trkpt lat="45.28465" lon="6.47301">
        <ele>2101.3</ele>
        <time>2021-10-26T08:41:44Z</time>
      </trkpt>
      <trkpt lat="45.28471" lon="6.47304">
        <ele>2102.7</ele>
        <time>2021-10-26T08:41:50Z</time>
      </trkpt>
      <trkpt lat="45.28475" lon="6.47306">
        <ele>2103.7</ele>
        <time>2021-10-26T08:41:54Z</time>
      </trkpt>
      <trkpt lat="45.28485" lon="6.47311">
        <ele>2106.4</ele>
        <time>2021-10-26T08:42:05Z</time>
      </trkpt>
      <trkpt lat="45.28498" lon="6.47325">
        <ele>2111.1</ele>
        <time>2021-10-26T08:42:22Z</time>
      </trkpt>
      <trkpt lat="45.28513" lon="6.47341">
        <ele>2116</ele>
        <time>2021-10-26T08:42:40Z</time>
      </trkpt>
      <trkpt lat="45.28526" lon="6.47353">
        <ele>2119.9</ele>
        <time>2021-10-26T08:42:56Z</time>
      </trkpt>
      <trkpt lat="45.28538" lon="6.47368">
        <ele>2123.7</ele>
        <time>2021-10-26T08:47:21Z</time>
      </trkpt>
      <trkpt lat="45.28555" lon="6.47378">
        <ele>2127.6</ele>
        <time>2021-10-26T08:47:35Z</time>
      </trkpt>
      <trkpt lat="45.28572" lon="6.47389">
        <ele>2131.8</ele>
        <time>2021-10-26T08:47:49Z</time>
      </trkpt>
      <trkpt lat="45.2859" lon="6.47397">
        <ele>2135</ele>
        <time>2021-10-26T08:48:02Z</time>
      </trkpt>
      <trkpt lat="45.28608" lon="6.47399">
        <ele>2135.9</ele>
        <time>2021-10-26T08:48:13Z</time>
      </trkpt>
      <trkpt lat="45.28628" lon="6.47401">
        <ele>2136.5</ele>
        <time>2021-10-26T08:48:25Z</time>
      </trkpt>
      <trkpt lat="45.28647" lon="6.47401">
        <ele>2137.6</ele>
        <time>2021-10-26T08:48:36Z</time>
      </trkpt>
      <trkpt lat="45.28665" lon="6.47398">
        <ele>2139.1</ele>
        <time>2021-10-26T08:48:46Z</time>
      </trkpt>
      <trkpt lat="45.28684" lon="6.47398">
        <ele>2141</ele>
        <time>2021-10-26T08:48:57Z</time>
      </trkpt>
      <trkpt lat="45.28688" lon="6.47397">
        <ele>2141.5</ele>
        <time>2021-10-26T08:48:59Z</time>
      </trkpt>
      <trkpt lat="45.28701" lon="6.47377">
        <ele>2144.2</ele>
        <time>2021-10-26T08:49:12Z</time>
      </trkpt>
      <trkpt lat="45.28718" lon="6.47366">
        <ele>2146.3</ele>
        <time>2021-10-26T08:49:24Z</time>
      </trkpt>
      <trkpt lat="45.28736" lon="6.47377">
        <ele>2147.9</ele>
        <time>2021-10-26T08:49:35Z</time>
      </trkpt>
      <trkpt lat="45.28753" lon="6.47381">
        <ele>2148.2</ele>
        <time>2021-10-26T08:50:25Z</time>
      </trkpt>
      <trkpt lat="45.28775" lon="6.4738">
        <ele>2148.1</ele>
        <time>2021-10-26T08:50:31Z</time>
      </trkpt>
      <trkpt lat="45.28794" lon="6.4737">
        <ele>2148.8</ele>
        <time>2021-10-26T08:50:37Z</time>
      </trkpt>
      <trkpt lat="45.28811" lon="6.47358">
        <ele>2150.2</ele>
        <time>2021-10-26T08:50:48Z</time>
      </trkpt>
      <trkpt lat="45.28819" lon="6.47342">
        <ele>2151.1</ele>
        <time>2021-10-26T08:50:57Z</time>
      </trkpt>
      <trkpt lat="45.28816" lon="6.47331">
        <ele>2151.9</ele>
        <time>2021-10-26T08:51:02Z</time>
      </trkpt>
      <trkpt lat="45.28808" lon="6.47317">
        <ele>2153.3</ele>
        <time>2021-10-26T08:51:11Z</time>
      </trkpt>
      <trkpt lat="45.28799" lon="6.473">
        <ele>2155</ele>
        <time>2021-10-26T08:51:23Z</time>
      </trkpt>
      <trkpt lat="45.28803" lon="6.47274">
        <ele>2157.4</ele>
        <time>2021-10-26T08:51:36Z</time>
      </trkpt>
      <trkpt lat="45.2881" lon="6.4725">
        <ele>2160.7</ele>
        <time>2021-10-26T08:51:50Z</time>
      </trkpt>
      <trkpt lat="45.28827" lon="6.47253">
        <ele>2164.5</ele>
        <time>2021-10-26T08:52:05Z</time>
      </trkpt>
      <trkpt lat="45.28837" lon="6.47275">
        <ele>2168.7</ele>
        <time>2021-10-26T08:52:21Z</time>
      </trkpt>
      <trkpt lat="45.28842" lon="6.4728">
        <ele>2169.8</ele>
        <time>2021-10-26T08:52:26Z</time>
      </trkpt>
      <trkpt lat="45.28847" lon="6.47282">
        <ele>2170.8</ele>
        <time>2021-10-26T08:52:31Z</time>
      </trkpt>
      <trkpt lat="45.28865" lon="6.47279">
        <ele>2173.7</ele>
        <time>2021-10-26T08:52:47Z</time>
      </trkpt>
      <trkpt lat="45.28874" lon="6.47257">
        <ele>2175.8</ele>
        <time>2021-10-26T08:53:01Z</time>
      </trkpt>
      <trkpt lat="45.28875" lon="6.47232">
        <ele>2177</ele>
        <time>2021-10-26T08:53:12Z</time>
      </trkpt>
      <trkpt lat="45.28873" lon="6.47229">
        <ele>2177.2</ele>
        <time>2021-10-26T08:53:13Z</time>
      </trkpt>
      <trkpt lat="45.28857" lon="6.47214">
        <ele>2177.4</ele>
        <time>2021-10-26T08:53:21Z</time>
      </trkpt>
      <trkpt lat="45.2884" lon="6.472">
        <ele>2178.1</ele>
        <time>2021-10-26T08:53:27Z</time>
      </trkpt>
      <trkpt lat="45.28824" lon="6.47183">
        <ele>2179.9</ele>
        <time>2021-10-26T08:53:37Z</time>
      </trkpt>
      <trkpt lat="45.28811" lon="6.47164">
        <ele>2181.4</ele>
        <time>2021-10-26T08:53:46Z</time>
      </trkpt>
      <trkpt lat="45.28796" lon="6.47148">
        <ele>2182.7</ele>
        <time>2021-10-26T08:53:56Z</time>
      </trkpt>
      <trkpt lat="45.28782" lon="6.47129">
        <ele>2183.4</ele>
        <time>2021-10-26T08:54:05Z</time>
      </trkpt>
      <trkpt lat="45.28771" lon="6.47109">
        <ele>2184</ele>
        <time>2021-10-26T08:54:14Z</time>
      </trkpt>
      <trkpt lat="45.28756" lon="6.47095">
        <ele>2185.2</ele>
        <time>2021-10-26T08:54:22Z</time>
      </trkpt>
      <trkpt lat="45.28745" lon="6.47075">
        <ele>2187</ele>
        <time>2021-10-26T08:54:31Z</time>
      </trkpt>
      <trkpt lat="45.28748" lon="6.47049">
        <ele>2189.5</ele>
        <time>2021-10-26T08:54:43Z</time>
      </trkpt>
      <trkpt lat="45.28751" lon="6.47023">
        <ele>2191.4</ele>
        <time>2021-10-26T08:54:54Z</time>
      </trkpt>
      <trkpt lat="45.2875" lon="6.46996">
        <ele>2192.6</ele>
        <time>2021-10-26T08:55:04Z</time>
      </trkpt>
      <trkpt lat="45.2875" lon="6.46967">
        <ele>2192.4</ele>
        <time>2021-10-26T08:55:13Z</time>
      </trkpt>
      <trkpt lat="45.28749" lon="6.46937">
        <ele>2192</ele>
        <time>2021-10-26T08:55:20Z</time>
      </trkpt>
      <trkpt lat="45.28746" lon="6.46919">
        <ele>2192.4</ele>
        <time>2021-10-26T08:55:25Z</time>
      </trkpt>
      <trkpt lat="45.28735" lon="6.46898">
        <ele>2193.9</ele>
        <time>2021-10-26T08:55:35Z</time>
      </trkpt>
      <trkpt lat="45.28745" lon="6.46898">
        <ele>2194.7</ele>
        <time>2021-10-26T08:55:41Z</time>
      </trkpt>
      <trkpt lat="45.28758" lon="6.46916">
        <ele>2196.7</ele>
        <time>2021-10-26T08:55:52Z</time>
      </trkpt>
      <trkpt lat="45.28759" lon="6.46941">
        <ele>2199.2</ele>
        <time>2021-10-26T08:56:03Z</time>
      </trkpt>
      <trkpt lat="45.28763" lon="6.46967">
        <ele>2201.5</ele>
        <time>2021-10-26T08:56:15Z</time>
      </trkpt>
      <trkpt lat="45.28767" lon="6.46993">
        <ele>2202.8</ele>
        <time>2021-10-26T08:56:27Z</time>
      </trkpt>
      <trkpt lat="45.2877" lon="6.47021">
        <ele>2204.7</ele>
        <time>2021-10-26T08:56:34Z</time>
      </trkpt>
      <trkpt lat="45.28775" lon="6.47046">
        <ele>2206.8</ele>
        <time>2021-10-26T08:56:45Z</time>
      </trkpt>
      <trkpt lat="45.2879" lon="6.47058">
        <ele>2208.3</ele>
        <time>2021-10-26T08:56:57Z</time>
      </trkpt>
      <trkpt lat="45.28808" lon="6.47055">
        <ele>2210</ele>
        <time>2021-10-26T08:57:11Z</time>
      </trkpt>
      <trkpt lat="45.2882" lon="6.47076">
        <ele>2213</ele>
        <time>2021-10-26T08:57:25Z</time>
      </trkpt>
      <trkpt lat="45.28834" lon="6.47092">
        <ele>2216</ele>
        <time>2021-10-26T08:57:39Z</time>
      </trkpt>
      <trkpt lat="45.28852" lon="6.471">
        <ele>2219</ele>
        <time>2021-10-26T08:57:53Z</time>
      </trkpt>
      <trkpt lat="45.28871" lon="6.47094">
        <ele>2222.2</ele>
        <time>2021-10-26T08:58:08Z</time>
      </trkpt>
      <trkpt lat="45.28885" lon="6.47082">
        <ele>2225.1</ele>
        <time>2021-10-26T08:58:24Z</time>
      </trkpt>
      <trkpt lat="45.28878" lon="6.47057">
        <ele>2227.4</ele>
        <time>2021-10-26T08:58:39Z</time>
      </trkpt>
      <trkpt lat="45.2887" lon="6.47033">
        <ele>2229.7</ele>
        <time>2021-10-26T08:58:54Z</time>
      </trkpt>
      <trkpt lat="45.28856" lon="6.47016">
        <ele>2231.8</ele>
        <time>2021-10-26T08:59:07Z</time>
      </trkpt>
      <trkpt lat="45.28843" lon="6.46997">
        <ele>2233.8</ele>
        <time>2021-10-26T08:59:20Z</time>
      </trkpt>
      <trkpt lat="45.28838" lon="6.46973">
        <ele>2235.9</ele>
        <time>2021-10-26T08:59:32Z</time>
      </trkpt>
      <trkpt lat="45.28834" lon="6.46947">
        <ele>2238</ele>
        <time>2021-10-26T08:59:45Z</time>
      </trkpt>
      <trkpt lat="45.28839" lon="6.46922">
        <ele>2240</ele>
        <time>2021-10-26T08:59:58Z</time>
      </trkpt>
      <trkpt lat="45.28856" lon="6.46918">
        <ele>2242.7</ele>
        <time>2021-10-26T09:00:11Z</time>
      </trkpt>
      <trkpt lat="45.2887" lon="6.46934">
        <ele>2245.1</ele>
        <time>2021-10-26T09:00:26Z</time>
      </trkpt>
      <trkpt lat="45.28881" lon="6.46955">
        <ele>2247</ele>
        <time>2021-10-26T09:00:39Z</time>
      </trkpt>
      <trkpt lat="45.28888" lon="6.46979">
        <ele>2250.3</ele>
        <time>2021-10-26T09:00:54Z</time>
      </trkpt>
      <trkpt lat="45.28899" lon="6.47">
        <ele>2253.7</ele>
        <time>2021-10-26T09:01:09Z</time>
      </trkpt>
      <trkpt lat="45.28912" lon="6.47012">
        <ele>2256.5</ele>
        <time>2021-10-26T09:01:21Z</time>
      </trkpt>
      <trkpt lat="45.28916" lon="6.4699">
        <ele>2260.1</ele>
        <time>2021-10-26T09:03:07Z</time>
      </trkpt>
      <trkpt lat="45.28922" lon="6.46976">
        <ele>2262.7</ele>
        <time>2021-10-26T09:03:17Z</time>
      </trkpt>
      <trkpt lat="45.2894" lon="6.46968">
        <ele>2265.9</ele>
        <time>2021-10-26T09:03:34Z</time>
      </trkpt>
      <trkpt lat="45.28943" lon="6.46963">
        <ele>2266.6</ele>
        <time>2021-10-26T09:03:38Z</time>
      </trkpt>
      <trkpt lat="45.28932" lon="6.46957">
        <ele>2268.7</ele>
        <time>2021-10-26T09:03:49Z</time>
      </trkpt>
      <trkpt lat="45.2892" lon="6.46955">
        <ele>2271.2</ele>
        <time>2021-10-26T09:03:59Z</time>
      </trkpt>
      <trkpt lat="45.2892" lon="6.46949">
        <ele>2272.2</ele>
        <time>2021-10-26T09:04:03Z</time>
      </trkpt>
      <trkpt lat="45.28932" lon="6.46929">
        <ele>2276.5</ele>
        <time>2021-10-26T09:04:20Z</time>
      </trkpt>
      <trkpt lat="45.28933" lon="6.46928">
        <ele>2276.7</ele>
        <time>2021-10-26T09:04:21Z</time>
      </trkpt>
      <trkpt lat="45.28935" lon="6.46925">
        <ele>2277.4</ele>
        <time>2021-10-26T09:04:24Z</time>
      </trkpt>
      <trkpt lat="45.28952" lon="6.46927">
        <ele>2281.5</ele>
        <time>2021-10-26T09:04:39Z</time>
      </trkpt>
      <trkpt lat="45.28963" lon="6.46907">
        <ele>2286</ele>
        <time>2021-10-26T09:04:57Z</time>
      </trkpt>
      <trkpt lat="45.28967" lon="6.46901">
        <ele>2287.3</ele>
        <time>2021-10-26T09:05:03Z</time>
      </trkpt>
      <trkpt lat="45.28969" lon="6.46885">
        <ele>2289.9</ele>
        <time>2021-10-26T09:05:18Z</time>
      </trkpt>
      <trkpt lat="45.28973" lon="6.4686">
        <ele>2293.3</ele>
        <time>2021-10-26T09:05:39Z</time>
      </trkpt>
      <trkpt lat="45.28973" lon="6.46858">
        <ele>2293.5</ele>
        <time>2021-10-26T09:05:40Z</time>
      </trkpt>
      <trkpt lat="45.28976" lon="6.4684">
        <ele>2295.3</ele>
        <time>2021-10-26T09:05:57Z</time>
      </trkpt>
      <trkpt lat="45.28961" lon="6.46824">
        <ele>2297.9</ele>
        <time>2021-10-26T09:06:17Z</time>
      </trkpt>
      <trkpt lat="45.2896" lon="6.4681">
        <ele>2299.5</ele>
        <time>2021-10-26T09:06:28Z</time>
      </trkpt>
      <trkpt lat="45.28977" lon="6.468">
        <ele>2302.4</ele>
        <time>2021-10-26T09:06:48Z</time>
      </trkpt>
      <trkpt lat="45.28983" lon="6.46794">
        <ele>2303.6</ele>
        <time>2021-10-26T09:06:56Z</time>
      </trkpt>
      <trkpt lat="45.28996" lon="6.46793">
        <ele>2305.6</ele>
        <time>2021-10-26T09:07:09Z</time>
      </trkpt>
      <trkpt lat="45.29" lon="6.46805">
        <ele>2307</ele>
        <time>2021-10-26T09:07:19Z</time>
      </trkpt>
      <trkpt lat="45.29" lon="6.46823">
        <ele>2309.1</ele>
        <time>2021-10-26T09:07:31Z</time>
      </trkpt>
      <trkpt lat="45.29007" lon="6.46848">
        <ele>2312</ele>
        <time>2021-10-26T09:07:48Z</time>
      </trkpt>
      <trkpt lat="45.29015" lon="6.46871">
        <ele>2315.1</ele>
        <time>2021-10-26T09:08:06Z</time>
      </trkpt>
      <trkpt lat="45.2903" lon="6.46885">
        <ele>2318.8</ele>
        <time>2021-10-26T09:08:24Z</time>
      </trkpt>
      <trkpt lat="45.29033" lon="6.46888">
        <ele>2319.5</ele>
        <time>2021-10-26T09:08:27Z</time>
      </trkpt>
      <trkpt lat="45.29047" lon="6.46903">
        <ele>2323.4</ele>
        <time>2021-10-26T09:08:44Z</time>
      </trkpt>
      <trkpt lat="45.29061" lon="6.46905">
        <ele>2325.6</ele>
        <time>2021-10-26T09:09:02Z</time>
      </trkpt>
      <trkpt lat="45.29061" lon="6.46901">
        <ele>2325.9</ele>
        <time>2021-10-26T09:09:05Z</time>
      </trkpt>
      <trkpt lat="45.29053" lon="6.46879">
        <ele>2328.1</ele>
        <time>2021-10-26T09:09:38Z</time>
      </trkpt>
      <trkpt lat="45.29043" lon="6.46858">
        <ele>2330.5</ele>
        <time>2021-10-26T09:09:55Z</time>
      </trkpt>
      <trkpt lat="45.29043" lon="6.46856">
        <ele>2330.7</ele>
        <time>2021-10-26T09:09:56Z</time>
      </trkpt>
      <trkpt lat="45.29043" lon="6.46851">
        <ele>2331.2</ele>
        <time>2021-10-26T09:10:00Z</time>
      </trkpt>
      <trkpt lat="45.29044" lon="6.46825">
        <ele>2333.7</ele>
        <time>2021-10-26T09:10:18Z</time>
      </trkpt>
      <trkpt lat="45.29055" lon="6.4681">
        <ele>2335.5</ele>
        <time>2021-10-26T09:10:31Z</time>
      </trkpt>
      <trkpt lat="45.2906" lon="6.46829">
        <ele>2336.9</ele>
        <time>2021-10-26T09:10:41Z</time>
      </trkpt>
      <trkpt lat="45.29068" lon="6.46852">
        <ele>2339.3</ele>
        <time>2021-10-26T09:11:00Z</time>
      </trkpt>
      <trkpt lat="45.2908" lon="6.46871">
        <ele>2341.9</ele>
        <time>2021-10-26T09:11:16Z</time>
      </trkpt>
      <trkpt lat="45.29097" lon="6.46882">
        <ele>2346.3</ele>
        <time>2021-10-26T09:11:37Z</time>
      </trkpt>
      <trkpt lat="45.2911" lon="6.46885">
        <ele>2349.8</ele>
        <time>2021-10-26T09:11:51Z</time>
      </trkpt>
      <trkpt lat="45.29114" lon="6.46886">
        <ele>2350.8</ele>
        <time>2021-10-26T09:11:55Z</time>
      </trkpt>
      <trkpt lat="45.29132" lon="6.46888">
        <ele>2355.6</ele>
        <time>2021-10-26T09:12:13Z</time>
      </trkpt>
      <trkpt lat="45.29143" lon="6.46892">
        <ele>2357.3</ele>
        <time>2021-10-26T09:12:25Z</time>
      </trkpt>
      <trkpt lat="45.2915" lon="6.46889">
        <ele>2358.2</ele>
        <time>2021-10-26T09:12:32Z</time>
      </trkpt>
      <trkpt lat="45.29158" lon="6.46885">
        <ele>2359.3</ele>
        <time>2021-10-26T09:12:41Z</time>
      </trkpt>
      <trkpt lat="45.29164" lon="6.46884">
        <ele>2360.4</ele>
        <time>2021-10-26T09:12:48Z</time>
      </trkpt>
      <trkpt lat="45.29169" lon="6.46883">
        <ele>2361.2</ele>
        <time>2021-10-26T09:12:53Z</time>
      </trkpt>
      <trkpt lat="45.29187" lon="6.46882">
        <ele>2364.3</ele>
        <time>2021-10-26T09:13:13Z</time>
      </trkpt>
      <trkpt lat="45.29203" lon="6.46892">
        <ele>2367</ele>
        <time>2021-10-26T09:13:31Z</time>
      </trkpt>
      <trkpt lat="45.29217" lon="6.46911">
        <ele>2368.7</ele>
        <time>2021-10-26T09:13:41Z</time>
      </trkpt>
      <trkpt lat="45.29218" lon="6.46911">
        <ele>2368.8</ele>
        <time>2021-10-26T09:13:42Z</time>
      </trkpt>
      <trkpt lat="45.29218" lon="6.46927">
        <ele>2369.5</ele>
        <time>2021-10-26T09:15:00Z</time>
      </trkpt>
      <trkpt lat="45.29226" lon="6.46904">
        <ele>2370.6</ele>
        <time>2021-10-26T09:15:31Z</time>
      </trkpt>
      <trkpt lat="45.29227" lon="6.46898">
        <ele>2371.1</ele>
        <time>2021-10-26T09:15:34Z</time>
      </trkpt>
      <trkpt lat="45.2924" lon="6.46886">
        <ele>2372.6</ele>
        <time>2021-10-26T09:15:45Z</time>
      </trkpt>
      <trkpt lat="45.29253" lon="6.46868">
        <ele>2374</ele>
        <time>2021-10-26T09:15:59Z</time>
      </trkpt>
      <trkpt lat="45.29261" lon="6.46845">
        <ele>2374.8</ele>
        <time>2021-10-26T09:16:11Z</time>
      </trkpt>
      <trkpt lat="45.29262" lon="6.46819">
        <ele>2375.4</ele>
        <time>2021-10-26T09:16:22Z</time>
      </trkpt>
      <trkpt lat="45.29259" lon="6.46793">
        <ele>2375.3</ele>
        <time>2021-10-26T09:16:33Z</time>
      </trkpt>
      <trkpt lat="45.29263" lon="6.46768">
        <ele>2375.4</ele>
        <time>2021-10-26T09:16:41Z</time>
      </trkpt>
      <trkpt lat="45.29278" lon="6.46753">
        <ele>2375.8</ele>
        <time>2021-10-26T09:16:53Z</time>
      </trkpt>
      <trkpt lat="45.29294" lon="6.46739">
        <ele>2376.8</ele>
        <time>2021-10-26T09:17:06Z</time>
      </trkpt>
      <trkpt lat="45.29312" lon="6.46733">
        <ele>2378.1</ele>
        <time>2021-10-26T09:17:20Z</time>
      </trkpt>
      <trkpt lat="45.2933" lon="6.46731">
        <ele>2378.8</ele>
        <time>2021-10-26T09:17:34Z</time>
      </trkpt>
      <trkpt lat="45.29348" lon="6.46723">
        <ele>2378.6</ele>
        <time>2021-10-26T09:17:48Z</time>
      </trkpt>
      <trkpt lat="45.29363" lon="6.46704">
        <ele>2378</ele>
        <time>2021-10-26T09:17:58Z</time>
      </trkpt>
      <trkpt lat="45.2938" lon="6.46691">
        <ele>2377.6</ele>
        <time>2021-10-26T09:18:04Z</time>
      </trkpt>
      <trkpt lat="45.29381" lon="6.46689">
        <ele>2377.5</ele>
        <time>2021-10-26T09:18:05Z</time>
      </trkpt>
      <trkpt lat="45.29381" lon="6.46674">
        <ele>2376.8</ele>
        <time>2021-10-26T09:21:07Z</time>
      </trkpt>
      <trkpt lat="45.29373" lon="6.4666">
        <ele>2375.8</ele>
        <time>2021-10-26T09:21:12Z</time>
      </trkpt>
      <trkpt lat="45.29371" lon="6.46655">
        <ele>2375.5</ele>
        <time>2021-10-26T09:21:13Z</time>
      </trkpt>
      <trkpt lat="45.2936" lon="6.46624">
        <ele>2372.6</ele>
        <time>2021-10-26T09:21:17Z</time>
      </trkpt>
      <trkpt lat="45.29353" lon="6.46605">
        <ele>2370.8</ele>
        <time>2021-10-26T09:21:19Z</time>
      </trkpt>
      <trkpt lat="45.29344" lon="6.46575">
        <ele>2368.6</ele>
        <time>2021-10-26T09:21:22Z</time>
      </trkpt>
      <trkpt lat="45.29337" lon="6.46547">
        <ele>2366.7</ele>
        <time>2021-10-26T09:21:25Z</time>
      </trkpt>
      <trkpt lat="45.29336" lon="6.46538">
        <ele>2365.9</ele>
        <time>2021-10-26T09:21:26Z</time>
      </trkpt>
      <trkpt lat="45.29335" lon="6.46521">
        <ele>2364.6</ele>
        <time>2021-10-26T09:21:28Z</time>
      </trkpt>
      <trkpt lat="45.29329" lon="6.46496">
        <ele>2362.2</ele>
        <time>2021-10-26T09:21:31Z</time>
      </trkpt>
      <trkpt lat="45.29331" lon="6.46464">
        <ele>2358.9</ele>
        <time>2021-10-26T09:21:35Z</time>
      </trkpt>
      <trkpt lat="45.29333" lon="6.46455">
        <ele>2358.4</ele>
        <time>2021-10-26T09:21:36Z</time>
      </trkpt>
      <trkpt lat="45.2935" lon="6.46439">
        <ele>2357.9</ele>
        <time>2021-10-26T09:21:40Z</time>
      </trkpt>
      <trkpt lat="45.29367" lon="6.46429">
        <ele>2356.7</ele>
        <time>2021-10-26T09:21:46Z</time>
      </trkpt>
      <trkpt lat="45.29373" lon="6.46422">
        <ele>2355.9</ele>
        <time>2021-10-26T09:21:49Z</time>
      </trkpt>
      <trkpt lat="45.29387" lon="6.46404">
        <ele>2353.8</ele>
        <time>2021-10-26T09:21:54Z</time>
      </trkpt>
      <trkpt lat="45.29403" lon="6.46381">
        <ele>2350.3</ele>
        <time>2021-10-26T09:21:58Z</time>
      </trkpt>
      <trkpt lat="45.29413" lon="6.46371">
        <ele>2348.3</ele>
        <time>2021-10-26T09:22:00Z</time>
      </trkpt>
      <trkpt lat="45.29409" lon="6.46345">
        <ele>2345.3</ele>
        <time>2021-10-26T09:22:06Z</time>
      </trkpt>
      <trkpt lat="45.29408" lon="6.46337">
        <ele>2344.4</ele>
        <time>2021-10-26T09:22:08Z</time>
      </trkpt>
      <trkpt lat="45.29431" lon="6.46338">
        <ele>2340.9</ele>
        <time>2021-10-26T09:22:14Z</time>
      </trkpt>
      <trkpt lat="45.29449" lon="6.46339">
        <ele>2338.2</ele>
        <time>2021-10-26T09:22:18Z</time>
      </trkpt>
      <trkpt lat="45.2944" lon="6.46322">
        <ele>2336.1</ele>
        <time>2021-10-26T09:22:22Z</time>
      </trkpt>
      <trkpt lat="45.29429" lon="6.46298">
        <ele>2333.5</ele>
        <time>2021-10-26T09:22:25Z</time>
      </trkpt>
      <trkpt lat="45.29424" lon="6.46267">
        <ele>2329.5</ele>
        <time>2021-10-26T09:22:29Z</time>
      </trkpt>
      <trkpt lat="45.29422" lon="6.46247">
        <ele>2326.9</ele>
        <time>2021-10-26T09:22:32Z</time>
      </trkpt>
      <trkpt lat="45.29423" lon="6.46237">
        <ele>2325.6</ele>
        <time>2021-10-26T09:22:34Z</time>
      </trkpt>
      <trkpt lat="45.29415" lon="6.46216">
        <ele>2328.4</ele>
        <time>2021-10-26T09:25:02Z</time>
      </trkpt>
      <trkpt lat="45.29412" lon="6.46203">
        <ele>2329.9</ele>
        <time>2021-10-26T09:25:09Z</time>
      </trkpt>
      <trkpt lat="45.29414" lon="6.46197">
        <ele>2330.7</ele>
        <time>2021-10-26T09:25:13Z</time>
      </trkpt>
      <trkpt lat="45.29413" lon="6.46176">
        <ele>2334.2</ele>
        <time>2021-10-26T09:25:41Z</time>
      </trkpt>
      <trkpt lat="45.2941" lon="6.46151">
        <ele>2340.1</ele>
        <time>2021-10-26T09:26:10Z</time>
      </trkpt>
      <trkpt lat="45.29424" lon="6.46143">
        <ele>2345.2</ele>
        <time>2021-10-26T09:26:43Z</time>
      </trkpt>
      <trkpt lat="45.29432" lon="6.4612">
        <ele>2350.7</ele>
        <time>2021-10-26T09:27:14Z</time>
      </trkpt>
      <trkpt lat="45.29431" lon="6.46103">
        <ele>2354.2</ele>
        <time>2021-10-26T09:27:47Z</time>
      </trkpt>
      <trkpt lat="45.29427" lon="6.46085">
        <ele>2358.1</ele>
        <time>2021-10-26T09:28:11Z</time>
      </trkpt>
      <trkpt lat="45.29425" lon="6.46061">
        <ele>2362.2</ele>
        <time>2021-10-26T09:28:33Z</time>
      </trkpt>
      <trkpt lat="45.29422" lon="6.46036">
        <ele>2364.2</ele>
        <time>2021-10-26T09:28:53Z</time>
      </trkpt>
      <trkpt lat="45.2942" lon="6.46013">
        <ele>2365</ele>
        <time>2021-10-26T09:29:07Z</time>
      </trkpt>
      <trkpt lat="45.29409" lon="6.45993">
        <ele>2365.3</ele>
        <time>2021-10-26T09:29:23Z</time>
      </trkpt>
      <trkpt lat="45.29404" lon="6.45984">
        <ele>2364.8</ele>
        <time>2021-10-26T09:29:32Z</time>
      </trkpt>
      <trkpt lat="45.29409" lon="6.45959">
        <ele>2364.2</ele>
        <time>2021-10-26T09:29:52Z</time>
      </trkpt>
      <trkpt lat="45.29409" lon="6.45934">
        <ele>2371.6</ele>
        <time>2021-10-26T09:30:21Z</time>
      </trkpt>
      <trkpt lat="45.29419" lon="6.45912">
        <ele>2378.7</ele>
        <time>2021-10-26T09:30:46Z</time>
      </trkpt>
      <trkpt lat="45.29419" lon="6.45895">
        <ele>2382.9</ele>
        <time>2021-10-26T09:31:13Z</time>
      </trkpt>
      <trkpt lat="45.29411" lon="6.45872">
        <ele>2388.2</ele>
        <time>2021-10-26T09:31:37Z</time>
      </trkpt>
      <trkpt lat="45.29415" lon="6.45849">
        <ele>2392.4</ele>
        <time>2021-10-26T09:32:08Z</time>
      </trkpt>
      <trkpt lat="45.29426" lon="6.45831">
        <ele>2399.5</ele>
        <time>2021-10-26T09:32:53Z</time>
      </trkpt>
      <trkpt lat="45.29437" lon="6.45813">
        <ele>2405.3</ele>
        <time>2021-10-26T09:33:29Z</time>
      </trkpt>
      <trkpt lat="45.29452" lon="6.45803">
        <ele>2410.3</ele>
        <time>2021-10-26T09:33:58Z</time>
      </trkpt>
      <trkpt lat="45.29457" lon="6.45781">
        <ele>2416.4</ele>
        <time>2021-10-26T09:34:35Z</time>
      </trkpt>
      <trkpt lat="45.29471" lon="6.45767">
        <ele>2423.5</ele>
        <time>2021-10-26T09:35:16Z</time>
      </trkpt>
      <trkpt lat="45.29485" lon="6.45753">
        <ele>2430.4</ele>
        <time>2021-10-26T09:35:51Z</time>
      </trkpt>
      <trkpt lat="45.2949" lon="6.45728">
        <ele>2437.4</ele>
        <time>2021-10-26T09:36:32Z</time>
      </trkpt>
      <trkpt lat="45.29493" lon="6.45705">
        <ele>2444</ele>
        <time>2021-10-26T09:37:17Z</time>
      </trkpt>
      <trkpt lat="45.29496" lon="6.45682">
        <ele>2450.3</ele>
        <time>2021-10-26T09:37:50Z</time>
      </trkpt>
      <trkpt lat="45.29494" lon="6.45658">
        <ele>2457.5</ele>
        <time>2021-10-26T09:38:30Z</time>
      </trkpt>
      <trkpt lat="45.29491" lon="6.45637">
        <ele>2464.9</ele>
        <time>2021-10-26T09:39:19Z</time>
      </trkpt>
      <trkpt lat="45.29479" lon="6.45621">
        <ele>2472.4</ele>
        <time>2021-10-26T09:40:01Z</time>
      </trkpt>
      <trkpt lat="45.29474" lon="6.45601">
        <ele>2479.7</ele>
        <time>2021-10-26T09:40:45Z</time>
      </trkpt>
      <trkpt lat="45.29478" lon="6.45579">
        <ele>2488</ele>
        <time>2021-10-26T09:41:37Z</time>
      </trkpt>
      <trkpt lat="45.29471" lon="6.45562">
        <ele>2495</ele>
        <time>2021-10-26T09:42:27Z</time>
      </trkpt>
      <trkpt lat="45.2947" lon="6.45546">
        <ele>2499.8</ele>
        <time>2021-10-26T09:45:34Z</time>
      </trkpt>
      <trkpt lat="45.29467" lon="6.45523">
        <ele>2506.5</ele>
        <time>2021-10-26T09:46:08Z</time>
      </trkpt>
      <trkpt lat="45.29473" lon="6.45502">
        <ele>2514.2</ele>
        <time>2021-10-26T09:46:49Z</time>
      </trkpt>
      <trkpt lat="45.29467" lon="6.45482">
        <ele>2518.9</ele>
        <time>2021-10-26T09:47:38Z</time>
      </trkpt>
      <trkpt lat="45.29463" lon="6.45457">
        <ele>2522.7</ele>
        <time>2021-10-26T09:48:06Z</time>
      </trkpt>
      <trkpt lat="45.29456" lon="6.45437">
        <ele>2526</ele>
        <time>2021-10-26T09:48:42Z</time>
      </trkpt>
      <trkpt lat="45.29444" lon="6.45418">
        <ele>2532</ele>
        <time>2021-10-26T09:49:26Z</time>
      </trkpt>
      <trkpt lat="45.29436" lon="6.45398">
        <ele>2538.1</ele>
        <time>2021-10-26T09:50:11Z</time>
      </trkpt>
      <trkpt lat="45.2942" lon="6.4539">
        <ele>2545.6</ele>
        <time>2021-10-26T09:50:53Z</time>
      </trkpt>
      <trkpt lat="45.29402" lon="6.45387">
        <ele>2553.4</ele>
        <time>2021-10-26T09:51:46Z</time>
      </trkpt>
      <trkpt lat="45.29395" lon="6.45384">
        <ele>2556.7</ele>
        <time>2021-10-26T09:53:18Z</time>
      </trkpt>
      <trkpt lat="45.29402" lon="6.45362">
        <ele>2563.2</ele>
        <time>2021-10-26T09:54:31Z</time>
      </trkpt>
      <trkpt lat="45.29392" lon="6.45348">
        <ele>2567.9</ele>
        <time>2021-10-26T09:55:04Z</time>
      </trkpt>
      <trkpt lat="45.29391" lon="6.45331">
        <ele>2572.5</ele>
        <time>2021-10-26T09:59:47Z</time>
      </trkpt>
      <trkpt lat="45.29397" lon="6.45307">
        <ele>2577.3</ele>
        <time>2021-10-26T10:00:46Z</time>
      </trkpt>
      <trkpt lat="45.29396" lon="6.4528">
        <ele>2582.3</ele>
        <time>2021-10-26T10:01:03Z</time>
      </trkpt>
      <trkpt lat="45.29398" lon="6.45255">
        <ele>2587.1</ele>
        <time>2021-10-26T10:01:22Z</time>
      </trkpt>
      <trkpt lat="45.29386" lon="6.45235">
        <ele>2592</ele>
        <time>2021-10-26T10:01:41Z</time>
      </trkpt>
      <trkpt lat="45.29373" lon="6.45216">
        <ele>2597</ele>
        <time>2021-10-26T10:02:01Z</time>
      </trkpt>
      <trkpt lat="45.2936" lon="6.45198">
        <ele>2601.9</ele>
        <time>2021-10-26T10:02:22Z</time>
      </trkpt>
      <trkpt lat="45.29346" lon="6.45182">
        <ele>2606.8</ele>
        <time>2021-10-26T10:02:48Z</time>
      </trkpt>
      <trkpt lat="45.29337" lon="6.45164">
        <ele>2610.9</ele>
        <time>2021-10-26T10:03:24Z</time>
      </trkpt>
      <trkpt lat="45.29328" lon="6.45142">
        <ele>2615.8</ele>
        <time>2021-10-26T10:03:49Z</time>
      </trkpt>
      <trkpt lat="45.29315" lon="6.45123">
        <ele>2620.7</ele>
        <time>2021-10-26T10:04:08Z</time>
      </trkpt>
      <trkpt lat="45.29301" lon="6.45105">
        <ele>2625.7</ele>
        <time>2021-10-26T10:04:31Z</time>
      </trkpt>
      <trkpt lat="45.29285" lon="6.45097">
        <ele>2630.2</ele>
        <time>2021-10-26T10:05:00Z</time>
      </trkpt>
      <trkpt lat="45.29278" lon="6.45075">
        <ele>2634.8</ele>
        <time>2021-10-26T10:05:36Z</time>
      </trkpt>
      <trkpt lat="45.29276" lon="6.4505">
        <ele>2639.5</ele>
        <time>2021-10-26T10:06:18Z</time>
      </trkpt>
      <trkpt lat="45.29266" lon="6.4503">
        <ele>2644.2</ele>
        <time>2021-10-26T10:06:55Z</time>
      </trkpt>
      <trkpt lat="45.29265" lon="6.4501">
        <ele>2647.9</ele>
        <time>2021-10-26T10:07:29Z</time>
      </trkpt>
      <trkpt lat="45.29283" lon="6.45008">
        <ele>2652.8</ele>
        <time>2021-10-26T10:08:00Z</time>
      </trkpt>
      <trkpt lat="45.29298" lon="6.44996">
        <ele>2657.4</ele>
        <time>2021-10-26T10:08:39Z</time>
      </trkpt>
      <trkpt lat="45.29315" lon="6.44998">
        <ele>2662.1</ele>
        <time>2021-10-26T10:09:21Z</time>
      </trkpt>
      <trkpt lat="45.29331" lon="6.45002">
        <ele>2666.5</ele>
        <time>2021-10-26T10:10:02Z</time>
      </trkpt>
      <trkpt lat="45.29348" lon="6.4501">
        <ele>2671.3</ele>
        <time>2021-10-26T10:10:37Z</time>
      </trkpt>
      <trkpt lat="45.29365" lon="6.45004">
        <ele>2676.1</ele>
        <time>2021-10-26T10:11:09Z</time>
      </trkpt>
      <trkpt lat="45.2938" lon="6.44993">
        <ele>2680.6</ele>
        <time>2021-10-26T10:11:34Z</time>
      </trkpt>
      <trkpt lat="45.29395" lon="6.44979">
        <ele>2685.3</ele>
        <time>2021-10-26T10:11:57Z</time>
      </trkpt>
      <trkpt lat="45.29412" lon="6.44969">
        <ele>2690.1</ele>
        <time>2021-10-26T10:12:25Z</time>
      </trkpt>
      <trkpt lat="45.2943" lon="6.44969">
        <ele>2695</ele>
        <time>2021-10-26T10:13:04Z</time>
      </trkpt>
      <trkpt lat="45.29447" lon="6.44974">
        <ele>2699.7</ele>
        <time>2021-10-26T10:13:32Z</time>
      </trkpt>
      <trkpt lat="45.29465" lon="6.44973">
        <ele>2704.4</ele>
        <time>2021-10-26T10:14:11Z</time>
      </trkpt>
      <trkpt lat="45.29481" lon="6.44974">
        <ele>2708.8</ele>
        <time>2021-10-26T10:14:51Z</time>
      </trkpt>
      <trkpt lat="45.29497" lon="6.44971">
        <ele>2713</ele>
        <time>2021-10-26T10:15:40Z</time>
      </trkpt>
      <trkpt lat="45.29511" lon="6.44969">
        <ele>2716.8</ele>
        <time>2021-10-26T10:16:24Z</time>
      </trkpt>
      <trkpt lat="45.29528" lon="6.44968">
        <ele>2721.3</ele>
        <time>2021-10-26T10:17:15Z</time>
      </trkpt>
      <trkpt lat="45.29545" lon="6.44966">
        <ele>2725.9</ele>
        <time>2021-10-26T10:18:05Z</time>
      </trkpt>
      <trkpt lat="45.29561" lon="6.44977">
        <ele>2730.7</ele>
        <time>2021-10-26T10:18:42Z</time>
      </trkpt>
      <trkpt lat="45.29575" lon="6.44976">
        <ele>2734.5</ele>
        <time>2021-10-26T10:20:06Z</time>
      </trkpt>
      <trkpt lat="45.29589" lon="6.4498">
        <ele>2738.2</ele>
        <time>2021-10-26T10:21:01Z</time>
      </trkpt>
      <trkpt lat="45.29605" lon="6.44982">
        <ele>2742.5</ele>
        <time>2021-10-26T10:22:17Z</time>
      </trkpt>
      <trkpt lat="45.29621" lon="6.44987">
        <ele>2746.9</ele>
        <time>2021-10-26T10:23:02Z</time>
      </trkpt>
      <trkpt lat="45.29634" lon="6.44993">
        <ele>2750.7</ele>
        <time>2021-10-26T10:24:07Z</time>
      </trkpt>
      <trkpt lat="45.29651" lon="6.45">
        <ele>2755.4</ele>
        <time>2021-10-26T10:24:51Z</time>
      </trkpt>
      <trkpt lat="45.29667" lon="6.45008">
        <ele>2759.8</ele>
        <time>2021-10-26T10:25:43Z</time>
      </trkpt>
      <trkpt lat="45.29684" lon="6.45015">
        <ele>2764.6</ele>
        <time>2021-10-26T10:26:25Z</time>
      </trkpt>
      <trkpt lat="45.29699" lon="6.45016">
        <ele>2768.7</ele>
        <time>2021-10-26T10:27:51Z</time>
      </trkpt>
      <trkpt lat="45.2971" lon="6.45022">
        <ele>2771.8</ele>
        <time>2021-10-26T10:29:30Z</time>
      </trkpt>
      <trkpt lat="45.29723" lon="6.45026">
        <ele>2775</ele>
        <time>2021-10-26T10:30:45Z</time>
      </trkpt>
      <trkpt lat="45.29732" lon="6.45028">
        <ele>2772.8</ele>
        <time>2021-10-26T10:57:01Z</time>
      </trkpt>
      <trkpt lat="45.29718" lon="6.45026">
        <ele>2769.4</ele>
        <time>2021-10-26T11:01:42Z</time>
      </trkpt>
      <trkpt lat="45.29712" lon="6.45024">
        <ele>2767.7</ele>
        <time>2021-10-26T11:06:12Z</time>
      </trkpt>
      <trkpt lat="45.29707" lon="6.45027">
        <ele>2766.4</ele>
        <time>2021-10-26T11:08:07Z</time>
      </trkpt>
      <trkpt lat="45.29701" lon="6.45025">
        <ele>2765</ele>
        <time>2021-10-26T11:10:24Z</time>
      </trkpt>
      <trkpt lat="45.29702" lon="6.45018">
        <ele>2763.6</ele>
        <time>2021-10-26T11:13:09Z</time>
      </trkpt>
      <trkpt lat="45.29691" lon="6.4502">
        <ele>2761</ele>
        <time>2021-10-26T11:14:25Z</time>
      </trkpt>
      <trkpt lat="45.29671" lon="6.45016">
        <ele>2756</ele>
        <time>2021-10-26T11:14:33Z</time>
      </trkpt>
      <trkpt lat="45.29656" lon="6.45007">
        <ele>2751.7</ele>
        <time>2021-10-26T11:16:09Z</time>
      </trkpt>
      <trkpt lat="45.29653" lon="6.45005">
        <ele>2750.9</ele>
        <time>2021-10-26T11:16:11Z</time>
      </trkpt>
      <trkpt lat="45.29644" lon="6.45002">
        <ele>2748.7</ele>
        <time>2021-10-26T11:16:16Z</time>
      </trkpt>
      <trkpt lat="45.29627" lon="6.44997">
        <ele>2744.2</ele>
        <time>2021-10-26T11:16:37Z</time>
      </trkpt>
      <trkpt lat="45.29621" lon="6.44993">
        <ele>2742.7</ele>
        <time>2021-10-26T11:18:10Z</time>
      </trkpt>
      <trkpt lat="45.29604" lon="6.44983">
        <ele>2738</ele>
        <time>2021-10-26T11:18:32Z</time>
      </trkpt>
      <trkpt lat="45.29598" lon="6.44983">
        <ele>2736.5</ele>
        <time>2021-10-26T11:18:36Z</time>
      </trkpt>
      <trkpt lat="45.29585" lon="6.44983">
        <ele>2733.2</ele>
        <time>2021-10-26T11:18:44Z</time>
      </trkpt>
      <trkpt lat="45.29567" lon="6.44976">
        <ele>2728.5</ele>
        <time>2021-10-26T11:18:55Z</time>
      </trkpt>
      <trkpt lat="45.29565" lon="6.44976">
        <ele>2728.1</ele>
        <time>2021-10-26T11:18:56Z</time>
      </trkpt>
      <trkpt lat="45.29546" lon="6.44971">
        <ele>2723.2</ele>
        <time>2021-10-26T11:19:05Z</time>
      </trkpt>
      <trkpt lat="45.29528" lon="6.4497">
        <ele>2718.6</ele>
        <time>2021-10-26T11:20:48Z</time>
      </trkpt>
      <trkpt lat="45.29509" lon="6.44972">
        <ele>2713.9</ele>
        <time>2021-10-26T11:20:58Z</time>
      </trkpt>
      <trkpt lat="45.29508" lon="6.44973">
        <ele>2713.7</ele>
        <time>2021-10-26T11:20:59Z</time>
      </trkpt>
      <trkpt lat="45.29494" lon="6.44974">
        <ele>2710.1</ele>
        <time>2021-10-26T11:22:32Z</time>
      </trkpt>
      <trkpt lat="45.29487" lon="6.44975">
        <ele>2708.3</ele>
        <time>2021-10-26T11:22:36Z</time>
      </trkpt>
      <trkpt lat="45.29478" lon="6.44977">
        <ele>2706.1</ele>
        <time>2021-10-26T11:22:41Z</time>
      </trkpt>
      <trkpt lat="45.2946" lon="6.44975">
        <ele>2701.6</ele>
        <time>2021-10-26T11:22:51Z</time>
      </trkpt>
      <trkpt lat="45.29458" lon="6.44976">
        <ele>2701</ele>
        <time>2021-10-26T11:22:52Z</time>
      </trkpt>
      <trkpt lat="45.29441" lon="6.44971">
        <ele>2696.7</ele>
        <time>2021-10-26T11:22:57Z</time>
      </trkpt>
      <trkpt lat="45.2942" lon="6.44968">
        <ele>2691.4</ele>
        <time>2021-10-26T11:23:02Z</time>
      </trkpt>
      <trkpt lat="45.29406" lon="6.44969">
        <ele>2687.9</ele>
        <time>2021-10-26T11:23:05Z</time>
      </trkpt>
      <trkpt lat="45.29389" lon="6.44983">
        <ele>2682.9</ele>
        <time>2021-10-26T11:23:09Z</time>
      </trkpt>
      <trkpt lat="45.2937" lon="6.44979">
        <ele>2678.2</ele>
        <time>2021-10-26T11:23:17Z</time>
      </trkpt>
      <trkpt lat="45.29359" lon="6.44978">
        <ele>2675.4</ele>
        <time>2021-10-26T11:25:42Z</time>
      </trkpt>
      <trkpt lat="45.29341" lon="6.44973">
        <ele>2670.9</ele>
        <time>2021-10-26T11:25:47Z</time>
      </trkpt>
      <trkpt lat="45.29338" lon="6.44971">
        <ele>2670.1</ele>
        <time>2021-10-26T11:25:48Z</time>
      </trkpt>
      <trkpt lat="45.2933" lon="6.44971">
        <ele>2668.1</ele>
        <time>2021-10-26T11:25:52Z</time>
      </trkpt>
      <trkpt lat="45.29316" lon="6.44973">
        <ele>2664.6</ele>
        <time>2021-10-26T11:26:03Z</time>
      </trkpt>
      <trkpt lat="45.2931" lon="6.44966">
        <ele>2662.7</ele>
        <time>2021-10-26T11:26:06Z</time>
      </trkpt>
      <trkpt lat="45.29307" lon="6.4498">
        <ele>2660.1</ele>
        <time>2021-10-26T11:26:41Z</time>
      </trkpt>
      <trkpt lat="45.29307" lon="6.44988">
        <ele>2658.6</ele>
        <time>2021-10-26T11:26:44Z</time>
      </trkpt>
      <trkpt lat="45.29305" lon="6.44989">
        <ele>2658.2</ele>
        <time>2021-10-26T11:26:46Z</time>
      </trkpt>
      <trkpt lat="45.29288" lon="6.44974">
        <ele>2653.3</ele>
        <time>2021-10-26T11:26:55Z</time>
      </trkpt>
      <trkpt lat="45.29282" lon="6.44972">
        <ele>2651.5</ele>
        <time>2021-10-26T11:26:58Z</time>
      </trkpt>
      <trkpt lat="45.29278" lon="6.44974">
        <ele>2650.5</ele>
        <time>2021-10-26T11:27:00Z</time>
      </trkpt>
      <trkpt lat="45.29271" lon="6.44996">
        <ele>2646.3</ele>
        <time>2021-10-26T11:27:06Z</time>
      </trkpt>
      <trkpt lat="45.29261" lon="6.45013">
        <ele>2642.5</ele>
        <time>2021-10-26T11:27:13Z</time>
      </trkpt>
      <trkpt lat="45.29263" lon="6.45026">
        <ele>2640</ele>
        <time>2021-10-26T11:28:56Z</time>
      </trkpt>
      <trkpt lat="45.29275" lon="6.45047">
        <ele>2635.3</ele>
        <time>2021-10-26T11:29:05Z</time>
      </trkpt>
      <trkpt lat="45.29279" lon="6.45073">
        <ele>2630.7</ele>
        <time>2021-10-26T11:29:19Z</time>
      </trkpt>
      <trkpt lat="45.2928" lon="6.45096">
        <ele>2626.6</ele>
        <time>2021-10-26T11:29:24Z</time>
      </trkpt>
      <trkpt lat="45.29296" lon="6.45112">
        <ele>2621.8</ele>
        <time>2021-10-26T11:29:56Z</time>
      </trkpt>
      <trkpt lat="45.29312" lon="6.45131">
        <ele>2616.6</ele>
        <time>2021-10-26T11:30:01Z</time>
      </trkpt>
      <trkpt lat="45.29324" lon="6.45152">
        <ele>2611.7</ele>
        <time>2021-10-26T11:30:06Z</time>
      </trkpt>
      <trkpt lat="45.29336" lon="6.45174">
        <ele>2606.9</ele>
        <time>2021-10-26T11:30:44Z</time>
      </trkpt>
      <trkpt lat="45.29345" lon="6.45189">
        <ele>2603.3</ele>
        <time>2021-10-26T11:30:47Z</time>
      </trkpt>
      <trkpt lat="45.2936" lon="6.45207">
        <ele>2598.5</ele>
        <time>2021-10-26T11:30:50Z</time>
      </trkpt>
      <trkpt lat="45.29369" lon="6.45219">
        <ele>2595.4</ele>
        <time>2021-10-26T11:30:52Z</time>
      </trkpt>
      <trkpt lat="45.29385" lon="6.45241">
        <ele>2589.9</ele>
        <time>2021-10-26T11:30:56Z</time>
      </trkpt>
      <trkpt lat="45.29388" lon="6.45245">
        <ele>2588.7</ele>
        <time>2021-10-26T11:30:57Z</time>
      </trkpt>
      <trkpt lat="45.29395" lon="6.45268">
        <ele>2584.3</ele>
        <time>2021-10-26T11:31:01Z</time>
      </trkpt>
      <trkpt lat="45.29396" lon="6.45295">
        <ele>2579.6</ele>
        <time>2021-10-26T11:31:05Z</time>
      </trkpt>
      <trkpt lat="45.29397" lon="6.45302">
        <ele>2578.2</ele>
        <time>2021-10-26T11:31:06Z</time>
      </trkpt>
      <trkpt lat="45.29399" lon="6.45317">
        <ele>2575.6</ele>
        <time>2021-10-26T11:31:08Z</time>
      </trkpt>
      <trkpt lat="45.29388" lon="6.45344">
        <ele>2570.4</ele>
        <time>2021-10-26T11:31:12Z</time>
      </trkpt>
      <trkpt lat="45.29372" lon="6.4536">
        <ele>2565.7</ele>
        <time>2021-10-26T11:31:15Z</time>
      </trkpt>
      <trkpt lat="45.29354" lon="6.4536">
        <ele>2562.4</ele>
        <time>2021-10-26T11:31:20Z</time>
      </trkpt>
      <trkpt lat="45.29346" lon="6.45349">
        <ele>2560.3</ele>
        <time>2021-10-26T11:31:27Z</time>
      </trkpt>
      <trkpt lat="45.29345" lon="6.45332">
        <ele>2557.1</ele>
        <time>2021-10-26T11:31:33Z</time>
      </trkpt>
      <trkpt lat="45.29328" lon="6.45344">
        <ele>2552.2</ele>
        <time>2021-10-26T11:32:21Z</time>
      </trkpt>
      <trkpt lat="45.2931" lon="6.45357">
        <ele>2547.6</ele>
        <time>2021-10-26T11:32:28Z</time>
      </trkpt>
      <trkpt lat="45.29291" lon="6.45361">
        <ele>2543.9</ele>
        <time>2021-10-26T11:32:35Z</time>
      </trkpt>
      <trkpt lat="45.29271" lon="6.45367">
        <ele>2539.2</ele>
        <time>2021-10-26T11:32:40Z</time>
      </trkpt>
      <trkpt lat="45.29254" lon="6.45375">
        <ele>2534.6</ele>
        <time>2021-10-26T11:32:44Z</time>
      </trkpt>
      <trkpt lat="45.29235" lon="6.45383">
        <ele>2528.8</ele>
        <time>2021-10-26T11:33:18Z</time>
      </trkpt>
      <trkpt lat="45.2922" lon="6.45373">
        <ele>2523.8</ele>
        <time>2021-10-26T11:33:26Z</time>
      </trkpt>
      <trkpt lat="45.2921" lon="6.45352">
        <ele>2518.8</ele>
        <time>2021-10-26T11:33:31Z</time>
      </trkpt>
      <trkpt lat="45.29203" lon="6.45342">
        <ele>2516.4</ele>
        <time>2021-10-26T11:33:36Z</time>
      </trkpt>
      <trkpt lat="45.29191" lon="6.45322">
        <ele>2510.8</ele>
        <time>2021-10-26T11:33:44Z</time>
      </trkpt>
      <trkpt lat="45.29173" lon="6.45315">
        <ele>2503.8</ele>
        <time>2021-10-26T11:33:54Z</time>
      </trkpt>
      <trkpt lat="45.29172" lon="6.45313">
        <ele>2503</ele>
        <time>2021-10-26T11:33:55Z</time>
      </trkpt>
      <trkpt lat="45.29161" lon="6.45291">
        <ele>2496.3</ele>
        <time>2021-10-26T11:34:02Z</time>
      </trkpt>
      <trkpt lat="45.29159" lon="6.45286">
        <ele>2495.2</ele>
        <time>2021-10-26T11:34:05Z</time>
      </trkpt>
      <trkpt lat="45.29149" lon="6.45291">
        <ele>2492.4</ele>
        <time>2021-10-26T11:34:10Z</time>
      </trkpt>
      <trkpt lat="45.2913" lon="6.453">
        <ele>2488.2</ele>
        <time>2021-10-26T11:34:17Z</time>
      </trkpt>
      <trkpt lat="45.29118" lon="6.45304">
        <ele>2485.7</ele>
        <time>2021-10-26T11:34:22Z</time>
      </trkpt>
      <trkpt lat="45.29106" lon="6.45311">
        <ele>2482</ele>
        <time>2021-10-26T11:34:27Z</time>
      </trkpt>
      <trkpt lat="45.29095" lon="6.45316">
        <ele>2478</ele>
        <time>2021-10-26T11:34:33Z</time>
      </trkpt>
      <trkpt lat="45.29084" lon="6.4532">
        <ele>2473.4</ele>
        <time>2021-10-26T11:34:39Z</time>
      </trkpt>
      <trkpt lat="45.29086" lon="6.4535">
        <ele>2466.9</ele>
        <time>2021-10-26T11:34:47Z</time>
      </trkpt>
      <trkpt lat="45.29088" lon="6.45376">
        <ele>2462.4</ele>
        <time>2021-10-26T11:34:52Z</time>
      </trkpt>
      <trkpt lat="45.2909" lon="6.45388">
        <ele>2460.8</ele>
        <time>2021-10-26T11:34:54Z</time>
      </trkpt>
      <trkpt lat="45.29091" lon="6.45412">
        <ele>2458</ele>
        <time>2021-10-26T11:36:36Z</time>
      </trkpt>
      <trkpt lat="45.29096" lon="6.45437">
        <ele>2455</ele>
        <time>2021-10-26T11:36:45Z</time>
      </trkpt>
      <trkpt lat="45.291" lon="6.45447">
        <ele>2453.5</ele>
        <time>2021-10-26T11:36:49Z</time>
      </trkpt>
      <trkpt lat="45.29114" lon="6.45467">
        <ele>2450.4</ele>
        <time>2021-10-26T11:36:57Z</time>
      </trkpt>
      <trkpt lat="45.29132" lon="6.45481">
        <ele>2447.4</ele>
        <time>2021-10-26T11:37:05Z</time>
      </trkpt>
      <trkpt lat="45.29149" lon="6.45497">
        <ele>2445.5</ele>
        <time>2021-10-26T11:37:13Z</time>
      </trkpt>
      <trkpt lat="45.29158" lon="6.45508">
        <ele>2444.4</ele>
        <time>2021-10-26T11:37:16Z</time>
      </trkpt>
      <trkpt lat="45.2917" lon="6.45533">
        <ele>2441.9</ele>
        <time>2021-10-26T11:37:21Z</time>
      </trkpt>
      <trkpt lat="45.29177" lon="6.45541">
        <ele>2441.2</ele>
        <time>2021-10-26T11:37:23Z</time>
      </trkpt>
      <trkpt lat="45.2919" lon="6.45563">
        <ele>2439.7</ele>
        <time>2021-10-26T11:37:29Z</time>
      </trkpt>
      <trkpt lat="45.29203" lon="6.45586">
        <ele>2437.3</ele>
        <time>2021-10-26T11:37:35Z</time>
      </trkpt>
      <trkpt lat="45.29207" lon="6.456">
        <ele>2435.5</ele>
        <time>2021-10-26T11:37:39Z</time>
      </trkpt>
      <trkpt lat="45.29203" lon="6.45618">
        <ele>2433.3</ele>
        <time>2021-10-26T11:37:44Z</time>
      </trkpt>
      <trkpt lat="45.29214" lon="6.45644">
        <ele>2430.5</ele>
        <time>2021-10-26T11:37:50Z</time>
      </trkpt>
      <trkpt lat="45.29226" lon="6.45665">
        <ele>2427.3</ele>
        <time>2021-10-26T11:37:56Z</time>
      </trkpt>
      <trkpt lat="45.29235" lon="6.45691">
        <ele>2423.5</ele>
        <time>2021-10-26T11:38:02Z</time>
      </trkpt>
      <trkpt lat="45.29243" lon="6.4571">
        <ele>2420.4</ele>
        <time>2021-10-26T11:40:26Z</time>
      </trkpt>
      <trkpt lat="45.29256" lon="6.4573">
        <ele>2417.2</ele>
        <time>2021-10-26T11:40:33Z</time>
      </trkpt>
      <trkpt lat="45.2927" lon="6.45748">
        <ele>2413.6</ele>
        <time>2021-10-26T11:40:38Z</time>
      </trkpt>
      <trkpt lat="45.29288" lon="6.45759">
        <ele>2410.2</ele>
        <time>2021-10-26T11:40:43Z</time>
      </trkpt>
      <trkpt lat="45.29292" lon="6.45761">
        <ele>2409.2</ele>
        <time>2021-10-26T11:40:44Z</time>
      </trkpt>
      <trkpt lat="45.29309" lon="6.45772">
        <ele>2404.9</ele>
        <time>2021-10-26T11:40:48Z</time>
      </trkpt>
      <trkpt lat="45.29323" lon="6.45794">
        <ele>2400</ele>
        <time>2021-10-26T11:40:53Z</time>
      </trkpt>
      <trkpt lat="45.29329" lon="6.45805">
        <ele>2397.4</ele>
        <time>2021-10-26T11:40:55Z</time>
      </trkpt>
      <trkpt lat="45.29349" lon="6.45817">
        <ele>2393.4</ele>
        <time>2021-10-26T11:40:59Z</time>
      </trkpt>
      <trkpt lat="45.29359" lon="6.45825">
        <ele>2391.7</ele>
        <time>2021-10-26T11:41:01Z</time>
      </trkpt>
      <trkpt lat="45.29374" lon="6.45843">
        <ele>2390.3</ele>
        <time>2021-10-26T11:41:04Z</time>
      </trkpt>
      <trkpt lat="45.29383" lon="6.45854">
        <ele>2390.1</ele>
        <time>2021-10-26T11:41:07Z</time>
      </trkpt>
      <trkpt lat="45.294" lon="6.45862">
        <ele>2389.5</ele>
        <time>2021-10-26T11:41:15Z</time>
      </trkpt>
      <trkpt lat="45.29416" lon="6.45875">
        <ele>2387.5</ele>
        <time>2021-10-26T11:41:24Z</time>
      </trkpt>
      <trkpt lat="45.29424" lon="6.45899">
        <ele>2381.9</ele>
        <time>2021-10-26T11:41:31Z</time>
      </trkpt>
      <trkpt lat="45.29428" lon="6.45908">
        <ele>2379.4</ele>
        <time>2021-10-26T11:41:35Z</time>
      </trkpt>
      <trkpt lat="45.29414" lon="6.45929">
        <ele>2372.3</ele>
        <time>2021-10-26T11:42:16Z</time>
      </trkpt>
      <trkpt lat="45.29413" lon="6.45935">
        <ele>2370.8</ele>
        <time>2021-10-26T11:42:17Z</time>
      </trkpt>
      <trkpt lat="45.29411" lon="6.45968">
        <ele>2363.8</ele>
        <time>2021-10-26T11:42:21Z</time>
      </trkpt>
      <trkpt lat="45.29412" lon="6.45996">
        <ele>2365.3</ele>
        <time>2021-10-26T11:42:25Z</time>
      </trkpt>
      <trkpt lat="45.29415" lon="6.46003">
        <ele>2365.4</ele>
        <time>2021-10-26T11:42:27Z</time>
      </trkpt>
      <trkpt lat="45.29421" lon="6.46021">
        <ele>2365</ele>
        <time>2021-10-26T11:42:32Z</time>
      </trkpt>
      <trkpt lat="45.29425" lon="6.46047">
        <ele>2363.9</ele>
        <time>2021-10-26T11:42:38Z</time>
      </trkpt>
      <trkpt lat="45.29428" lon="6.46072">
        <ele>2361.5</ele>
        <time>2021-10-26T11:42:54Z</time>
      </trkpt>
      <trkpt lat="45.29428" lon="6.46084">
        <ele>2359.4</ele>
        <time>2021-10-26T11:42:56Z</time>
      </trkpt>
      <trkpt lat="45.2943" lon="6.46105">
        <ele>2355.3</ele>
        <time>2021-10-26T11:43:00Z</time>
      </trkpt>
      <trkpt lat="45.2942" lon="6.46121">
        <ele>2351</ele>
        <time>2021-10-26T11:43:06Z</time>
      </trkpt>
      <trkpt lat="45.29419" lon="6.46131">
        <ele>2348.8</ele>
        <time>2021-10-26T11:43:09Z</time>
      </trkpt>
      <trkpt lat="45.29421" lon="6.46157">
        <ele>2343.1</ele>
        <time>2021-10-26T11:43:18Z</time>
      </trkpt>
      <trkpt lat="45.29414" lon="6.46156">
        <ele>2340.7</ele>
        <time>2021-10-26T11:44:25Z</time>
      </trkpt>
      <trkpt lat="45.29408" lon="6.46169">
        <ele>2337.2</ele>
        <time>2021-10-26T11:44:32Z</time>
      </trkpt>
      <trkpt lat="45.29416" lon="6.46191">
        <ele>2332.2</ele>
        <time>2021-10-26T11:44:38Z</time>
      </trkpt>
      <trkpt lat="45.29415" lon="6.46219">
        <ele>2328.6</ele>
        <time>2021-10-26T11:44:43Z</time>
      </trkpt>
      <trkpt lat="45.29419" lon="6.46229">
        <ele>2327.1</ele>
        <time>2021-10-26T11:44:45Z</time>
      </trkpt>
      <trkpt lat="45.29422" lon="6.46238">
        <ele>2325.6</ele>
        <time>2021-10-26T11:44:47Z</time>
      </trkpt>
      <trkpt lat="45.29413" lon="6.46241">
        <ele>2324.6</ele>
        <time>2021-10-26T11:45:07Z</time>
      </trkpt>
      <trkpt lat="45.29394" lon="6.46238">
        <ele>2319.9</ele>
        <time>2021-10-26T11:45:13Z</time>
      </trkpt>
      <trkpt lat="45.2939" lon="6.46235">
        <ele>2318.7</ele>
        <time>2021-10-26T11:45:14Z</time>
      </trkpt>
      <trkpt lat="45.2938" lon="6.46228">
        <ele>2315.9</ele>
        <time>2021-10-26T11:45:16Z</time>
      </trkpt>
      <trkpt lat="45.29371" lon="6.46218">
        <ele>2313.3</ele>
        <time>2021-10-26T11:45:18Z</time>
      </trkpt>
      <trkpt lat="45.29358" lon="6.462">
        <ele>2309.9</ele>
        <time>2021-10-26T11:45:22Z</time>
      </trkpt>
      <trkpt lat="45.29349" lon="6.46189">
        <ele>2307.7</ele>
        <time>2021-10-26T11:45:24Z</time>
      </trkpt>
      <trkpt lat="45.29333" lon="6.46172">
        <ele>2303.8</ele>
        <time>2021-10-26T11:45:28Z</time>
      </trkpt>
      <trkpt lat="45.2932" lon="6.46162">
        <ele>2301.2</ele>
        <time>2021-10-26T11:45:31Z</time>
      </trkpt>
      <trkpt lat="45.29302" lon="6.46155">
        <ele>2298.2</ele>
        <time>2021-10-26T11:45:35Z</time>
      </trkpt>
      <trkpt lat="45.29284" lon="6.46145">
        <ele>2295.6</ele>
        <time>2021-10-26T11:45:40Z</time>
      </trkpt>
      <trkpt lat="45.29279" lon="6.46143">
        <ele>2294.8</ele>
        <time>2021-10-26T11:45:42Z</time>
      </trkpt>
      <trkpt lat="45.29264" lon="6.46143">
        <ele>2291.3</ele>
        <time>2021-10-26T11:45:47Z</time>
      </trkpt>
      <trkpt lat="45.29247" lon="6.46139">
        <ele>2285.5</ele>
        <time>2021-10-26T11:45:51Z</time>
      </trkpt>
      <trkpt lat="45.29242" lon="6.46137">
        <ele>2283.8</ele>
        <time>2021-10-26T11:45:52Z</time>
      </trkpt>
      <trkpt lat="45.29219" lon="6.46131">
        <ele>2276.2</ele>
        <time>2021-10-26T11:45:56Z</time>
      </trkpt>
      <trkpt lat="45.29214" lon="6.46132">
        <ele>2274.7</ele>
        <time>2021-10-26T11:45:57Z</time>
      </trkpt>
      <trkpt lat="45.29204" lon="6.46133">
        <ele>2271.9</ele>
        <time>2021-10-26T11:45:59Z</time>
      </trkpt>
      <trkpt lat="45.29185" lon="6.46133">
        <ele>2266.5</ele>
        <time>2021-10-26T11:46:03Z</time>
      </trkpt>
      <trkpt lat="45.29182" lon="6.46134">
        <ele>2265.3</ele>
        <time>2021-10-26T11:46:04Z</time>
      </trkpt>
      <trkpt lat="45.29174" lon="6.46145">
        <ele>2262.5</ele>
        <time>2021-10-26T11:46:07Z</time>
      </trkpt>
      <trkpt lat="45.29162" lon="6.46167">
        <ele>2257.6</ele>
        <time>2021-10-26T11:47:20Z</time>
      </trkpt>
      <trkpt lat="45.29157" lon="6.46174">
        <ele>2255.5</ele>
        <time>2021-10-26T11:47:22Z</time>
      </trkpt>
      <trkpt lat="45.29139" lon="6.46172">
        <ele>2249.9</ele>
        <time>2021-10-26T11:47:26Z</time>
      </trkpt>
      <trkpt lat="45.29136" lon="6.46168">
        <ele>2248.6</ele>
        <time>2021-10-26T11:47:27Z</time>
      </trkpt>
      <trkpt lat="45.29131" lon="6.46159">
        <ele>2245.9</ele>
        <time>2021-10-26T11:47:29Z</time>
      </trkpt>
      <trkpt lat="45.29117" lon="6.46141">
        <ele>2239.7</ele>
        <time>2021-10-26T11:47:34Z</time>
      </trkpt>
      <trkpt lat="45.29103" lon="6.46154">
        <ele>2234.5</ele>
        <time>2021-10-26T11:47:38Z</time>
      </trkpt>
      <trkpt lat="45.29099" lon="6.46159">
        <ele>2232.6</ele>
        <time>2021-10-26T11:47:39Z</time>
      </trkpt>
      <trkpt lat="45.29085" lon="6.46185">
        <ele>2227.2</ele>
        <time>2021-10-26T11:47:43Z</time>
      </trkpt>
      <trkpt lat="45.29082" lon="6.46192">
        <ele>2226</ele>
        <time>2021-10-26T11:47:44Z</time>
      </trkpt>
      <trkpt lat="45.29079" lon="6.46199">
        <ele>2224.7</ele>
        <time>2021-10-26T11:47:45Z</time>
      </trkpt>
      <trkpt lat="45.29063" lon="6.46209">
        <ele>2219.7</ele>
        <time>2021-10-26T11:47:50Z</time>
      </trkpt>
      <trkpt lat="45.29055" lon="6.46213">
        <ele>2217</ele>
        <time>2021-10-26T11:47:53Z</time>
      </trkpt>
      <trkpt lat="45.29051" lon="6.46217">
        <ele>2215.2</ele>
        <time>2021-10-26T11:47:55Z</time>
      </trkpt>
      <trkpt lat="45.29047" lon="6.46218">
        <ele>2214</ele>
        <time>2021-10-26T11:47:58Z</time>
      </trkpt>
      <trkpt lat="45.29042" lon="6.46217">
        <ele>2212.3</ele>
        <time>2021-10-26T11:48:03Z</time>
      </trkpt>
      <trkpt lat="45.29029" lon="6.46211">
        <ele>2207</ele>
        <time>2021-10-26T11:48:14Z</time>
      </trkpt>
      <trkpt lat="45.29019" lon="6.46232">
        <ele>2200.6</ele>
        <time>2021-10-26T11:48:21Z</time>
      </trkpt>
      <trkpt lat="45.29011" lon="6.46251">
        <ele>2196</ele>
        <time>2021-10-26T11:48:25Z</time>
      </trkpt>
      <trkpt lat="45.29012" lon="6.46276">
        <ele>2190.8</ele>
        <time>2021-10-26T11:48:31Z</time>
      </trkpt>
      <trkpt lat="45.2901" lon="6.46282">
        <ele>2189.6</ele>
        <time>2021-10-26T11:48:32Z</time>
      </trkpt>
      <trkpt lat="45.28997" lon="6.463">
        <ele>2185.7</ele>
        <time>2021-10-26T11:48:58Z</time>
      </trkpt>
      <trkpt lat="45.28981" lon="6.46315">
        <ele>2182.6</ele>
        <time>2021-10-26T11:49:05Z</time>
      </trkpt>
      <trkpt lat="45.28977" lon="6.46318">
        <ele>2181.9</ele>
        <time>2021-10-26T11:49:06Z</time>
      </trkpt>
      <trkpt lat="45.28969" lon="6.46322">
        <ele>2180.3</ele>
        <time>2021-10-26T11:49:08Z</time>
      </trkpt>
      <trkpt lat="45.28947" lon="6.46327">
        <ele>2175.5</ele>
        <time>2021-10-26T11:49:12Z</time>
      </trkpt>
      <trkpt lat="45.28935" lon="6.4633">
        <ele>2173.1</ele>
        <time>2021-10-26T11:49:14Z</time>
      </trkpt>
      <trkpt lat="45.28918" lon="6.46338">
        <ele>2170.2</ele>
        <time>2021-10-26T11:49:17Z</time>
      </trkpt>
      <trkpt lat="45.28902" lon="6.46355">
        <ele>2166</ele>
        <time>2021-10-26T11:49:22Z</time>
      </trkpt>
      <trkpt lat="45.28889" lon="6.46377">
        <ele>2160.2</ele>
        <time>2021-10-26T11:49:28Z</time>
      </trkpt>
      <trkpt lat="45.28886" lon="6.46384">
        <ele>2158.6</ele>
        <time>2021-10-26T11:49:30Z</time>
      </trkpt>
      <trkpt lat="45.28885" lon="6.46404">
        <ele>2155.4</ele>
        <time>2021-10-26T11:49:34Z</time>
      </trkpt>
      <trkpt lat="45.28883" lon="6.46407">
        <ele>2154.7</ele>
        <time>2021-10-26T11:49:35Z</time>
      </trkpt>
      <trkpt lat="45.28869" lon="6.46424">
        <ele>2150.5</ele>
        <time>2021-10-26T11:49:40Z</time>
      </trkpt>
      <trkpt lat="45.28868" lon="6.46429">
        <ele>2149.8</ele>
        <time>2021-10-26T11:49:41Z</time>
      </trkpt>
      <trkpt lat="45.28867" lon="6.46439">
        <ele>2148</ele>
        <time>2021-10-26T11:49:44Z</time>
      </trkpt>
      <trkpt lat="45.28851" lon="6.46437">
        <ele>2143</ele>
        <time>2021-10-26T11:49:51Z</time>
      </trkpt>
      <trkpt lat="45.28834" lon="6.46448">
        <ele>2136.9</ele>
        <time>2021-10-26T11:49:57Z</time>
      </trkpt>
      <trkpt lat="45.28819" lon="6.46456">
        <ele>2131.5</ele>
        <time>2021-10-26T11:50:02Z</time>
      </trkpt>
      <trkpt lat="45.28813" lon="6.46457">
        <ele>2129.2</ele>
        <time>2021-10-26T11:50:04Z</time>
      </trkpt>
      <trkpt lat="45.28794" lon="6.46461">
        <ele>2122.4</ele>
        <time>2021-10-26T11:50:09Z</time>
      </trkpt>
      <trkpt lat="45.28789" lon="6.46462">
        <ele>2120.7</ele>
        <time>2021-10-26T11:50:10Z</time>
      </trkpt>
      <trkpt lat="45.28769" lon="6.46466">
        <ele>2114.6</ele>
        <time>2021-10-26T11:50:15Z</time>
      </trkpt>
      <trkpt lat="45.28766" lon="6.46464">
        <ele>2113.7</ele>
        <time>2021-10-26T11:50:16Z</time>
      </trkpt>
      <trkpt lat="45.28746" lon="6.46459">
        <ele>2107</ele>
        <time>2021-10-26T11:50:22Z</time>
      </trkpt>
      <trkpt lat="45.28724" lon="6.46459">
        <ele>2100.5</ele>
        <time>2021-10-26T11:50:26Z</time>
      </trkpt>
      <trkpt lat="45.28715" lon="6.46461">
        <ele>2097.6</ele>
        <time>2021-10-26T11:50:28Z</time>
      </trkpt>
      <trkpt lat="45.28697" lon="6.46469">
        <ele>2092.7</ele>
        <time>2021-10-26T11:51:33Z</time>
      </trkpt>
      <trkpt lat="45.28695" lon="6.4647">
        <ele>2092.2</ele>
        <time>2021-10-26T11:51:34Z</time>
      </trkpt>
      <trkpt lat="45.28686" lon="6.46477">
        <ele>2089.2</ele>
        <time>2021-10-26T11:51:36Z</time>
      </trkpt>
      <trkpt lat="45.28671" lon="6.46497">
        <ele>2083.6</ele>
        <time>2021-10-26T11:51:40Z</time>
      </trkpt>
      <trkpt lat="45.28654" lon="6.46513">
        <ele>2079.2</ele>
        <time>2021-10-26T11:51:44Z</time>
      </trkpt>
      <trkpt lat="45.28639" lon="6.46532">
        <ele>2076.5</ele>
        <time>2021-10-26T11:51:47Z</time>
      </trkpt>
      <trkpt lat="45.28623" lon="6.46554">
        <ele>2073.5</ele>
        <time>2021-10-26T11:51:50Z</time>
      </trkpt>
      <trkpt lat="45.28606" lon="6.46568">
        <ele>2070.2</ele>
        <time>2021-10-26T11:51:53Z</time>
      </trkpt>
      <trkpt lat="45.28584" lon="6.46576">
        <ele>2064.5</ele>
        <time>2021-10-26T11:51:57Z</time>
      </trkpt>
      <trkpt lat="45.2858" lon="6.46578">
        <ele>2063.5</ele>
        <time>2021-10-26T11:51:58Z</time>
      </trkpt>
      <trkpt lat="45.28558" lon="6.46588">
        <ele>2058.8</ele>
        <time>2021-10-26T11:52:03Z</time>
      </trkpt>
      <trkpt lat="45.28553" lon="6.46593">
        <ele>2058</ele>
        <time>2021-10-26T11:52:04Z</time>
      </trkpt>
      <trkpt lat="45.28538" lon="6.46605">
        <ele>2055.4</ele>
        <time>2021-10-26T11:52:08Z</time>
      </trkpt>
      <trkpt lat="45.28529" lon="6.46605">
        <ele>2053.9</ele>
        <time>2021-10-26T11:52:10Z</time>
      </trkpt>
      <trkpt lat="45.28524" lon="6.46605">
        <ele>2053</ele>
        <time>2021-10-26T11:52:11Z</time>
      </trkpt>
      <trkpt lat="45.28511" lon="6.46607">
        <ele>2050.3</ele>
        <time>2021-10-26T11:52:14Z</time>
      </trkpt>
      <trkpt lat="45.28496" lon="6.4659">
        <ele>2046.1</ele>
        <time>2021-10-26T11:52:19Z</time>
      </trkpt>
      <trkpt lat="45.28486" lon="6.46585">
        <ele>2043.7</ele>
        <time>2021-10-26T11:52:22Z</time>
      </trkpt>
      <trkpt lat="45.28471" lon="6.46596">
        <ele>2040</ele>
        <time>2021-10-26T11:52:28Z</time>
      </trkpt>
      <trkpt lat="45.28462" lon="6.46606">
        <ele>2038.3</ele>
        <time>2021-10-26T11:52:34Z</time>
      </trkpt>
      <trkpt lat="45.28445" lon="6.46601">
        <ele>2035.5</ele>
        <time>2021-10-26T11:52:39Z</time>
      </trkpt>
      <trkpt lat="45.28426" lon="6.46588">
        <ele>2032.1</ele>
        <time>2021-10-26T11:52:44Z</time>
      </trkpt>
      <trkpt lat="45.28415" lon="6.46569">
        <ele>2030</ele>
        <time>2021-10-26T11:52:51Z</time>
      </trkpt>
      <trkpt lat="45.28415" lon="6.46565">
        <ele>2029.9</ele>
        <time>2021-10-26T11:52:52Z</time>
      </trkpt>
      <trkpt lat="45.28416" lon="6.46537">
        <ele>2029.4</ele>
        <time>2021-10-26T11:52:59Z</time>
      </trkpt>
      <trkpt lat="45.28421" lon="6.46509">
        <ele>2028.7</ele>
        <time>2021-10-26T11:53:06Z</time>
      </trkpt>
      <trkpt lat="45.28427" lon="6.46481">
        <ele>2027.9</ele>
        <time>2021-10-26T11:53:13Z</time>
      </trkpt>
      <trkpt lat="45.28431" lon="6.46465">
        <ele>2027.6</ele>
        <time>2021-10-26T11:53:16Z</time>
      </trkpt>
      <trkpt lat="45.28433" lon="6.46448">
        <ele>2027.4</ele>
        <time>2021-10-26T11:53:20Z</time>
      </trkpt>
      <trkpt lat="45.28446" lon="6.46429">
        <ele>2027.3</ele>
        <time>2021-10-26T11:53:27Z</time>
      </trkpt>
      <trkpt lat="45.28448" lon="6.46425">
        <ele>2027.2</ele>
        <time>2021-10-26T11:53:29Z</time>
      </trkpt>
      <trkpt lat="45.28463" lon="6.46407">
        <ele>2026.4</ele>
        <time>2021-10-26T11:53:36Z</time>
      </trkpt>
      <trkpt lat="45.28476" lon="6.46394">
        <ele>2025.3</ele>
        <time>2021-10-26T11:53:40Z</time>
      </trkpt>
      <trkpt lat="45.28493" lon="6.46379">
        <ele>2023.4</ele>
        <time>2021-10-26T11:53:45Z</time>
      </trkpt>
      <trkpt lat="45.2851" lon="6.46368">
        <ele>2020.6</ele>
        <time>2021-10-26T11:53:51Z</time>
      </trkpt>
      <trkpt lat="45.28528" lon="6.46355">
        <ele>2019</ele>
        <time>2021-10-26T11:54:01Z</time>
      </trkpt>
      <trkpt lat="45.2853" lon="6.46354">
        <ele>2019</ele>
        <time>2021-10-26T11:54:02Z</time>
      </trkpt>
      <trkpt lat="45.28534" lon="6.46343">
        <ele>2019.1</ele>
        <time>2021-10-26T11:54:06Z</time>
      </trkpt>
      <trkpt lat="45.28528" lon="6.46318">
        <ele>2019.7</ele>
        <time>2021-10-26T11:54:14Z</time>
      </trkpt>
      <trkpt lat="45.28528" lon="6.46311">
        <ele>2019.6</ele>
        <time>2021-10-26T11:54:16Z</time>
      </trkpt>
      <trkpt lat="45.28529" lon="6.46301">
        <ele>2019.4</ele>
        <time>2021-10-26T11:54:19Z</time>
      </trkpt>
      <trkpt lat="45.2853" lon="6.46279">
        <ele>2018.6</ele>
        <time>2021-10-26T11:54:25Z</time>
      </trkpt>
      <trkpt lat="45.28532" lon="6.46252">
        <ele>2017.4</ele>
        <time>2021-10-26T11:54:31Z</time>
      </trkpt>
      <trkpt lat="45.28543" lon="6.46231">
        <ele>2016.4</ele>
        <time>2021-10-26T11:54:38Z</time>
      </trkpt>
      <trkpt lat="45.28543" lon="6.46225">
        <ele>2016.2</ele>
        <time>2021-10-26T11:54:40Z</time>
      </trkpt>
      <trkpt lat="45.28536" lon="6.46199">
        <ele>2016</ele>
        <time>2021-10-26T11:54:48Z</time>
      </trkpt>
      <trkpt lat="45.2853" lon="6.46186">
        <ele>2016</ele>
        <time>2021-10-26T11:54:52Z</time>
      </trkpt>
      <trkpt lat="45.28519" lon="6.46165">
        <ele>2016.5</ele>
        <time>2021-10-26T11:55:06Z</time>
      </trkpt>
      <trkpt lat="45.28515" lon="6.46154">
        <ele>2017.2</ele>
        <time>2021-10-26T11:55:16Z</time>
      </trkpt>
      <trkpt lat="45.28515" lon="6.46145">
        <ele>2017.8</ele>
        <time>2021-10-26T11:55:22Z</time>
      </trkpt>
      <trkpt lat="45.28514" lon="6.46142">
        <ele>2018.1</ele>
        <time>2021-10-26T11:55:25Z</time>
      </trkpt>
      <trkpt lat="45.28504" lon="6.46119">
        <ele>2020.5</ele>
        <time>2021-10-26T11:55:48Z</time>
      </trkpt>
      <trkpt lat="45.28503" lon="6.46117">
        <ele>2020.8</ele>
        <time>2021-10-26T11:55:50Z</time>
      </trkpt>
      <trkpt lat="45.28498" lon="6.46111">
        <ele>2022</ele>
        <time>2021-10-26T11:55:57Z</time>
      </trkpt>
      <trkpt lat="45.28486" lon="6.46094">
        <ele>2025.7</ele>
        <time>2021-10-26T11:56:25Z</time>
      </trkpt>
      <trkpt lat="45.28481" lon="6.46068">
        <ele>2029.4</ele>
        <time>2021-10-26T11:56:51Z</time>
      </trkpt>
      <trkpt lat="45.28473" lon="6.46044">
        <ele>2032.2</ele>
        <time>2021-10-26T11:57:07Z</time>
      </trkpt>
      <trkpt lat="45.28468" lon="6.46027">
        <ele>2033.2</ele>
        <time>2021-10-26T11:57:20Z</time>
      </trkpt>
      <trkpt lat="45.28461" lon="6.46013">
        <ele>2033.4</ele>
        <time>2021-10-26T11:57:51Z</time>
      </trkpt>
      <trkpt lat="45.28446" lon="6.45999">
        <ele>2033.1</ele>
        <time>2021-10-26T12:00:19Z</time>
      </trkpt>
      <trkpt lat="45.28432" lon="6.4598">
        <ele>2032.7</ele>
        <time>2021-10-26T12:00:28Z</time>
      </trkpt>
      <trkpt lat="45.28422" lon="6.4597">
        <ele>2032.6</ele>
        <time>2021-10-26T12:00:33Z</time>
      </trkpt>
      <trkpt lat="45.28409" lon="6.45952">
        <ele>2032.9</ele>
        <time>2021-10-26T12:00:41Z</time>
      </trkpt>
      <trkpt lat="45.28406" lon="6.45927">
        <ele>2034.3</ele>
        <time>2021-10-26T12:01:09Z</time>
      </trkpt>
      <trkpt lat="45.28405" lon="6.45925">
        <ele>2034.4</ele>
        <time>2021-10-26T12:01:10Z</time>
      </trkpt>
      <trkpt lat="45.28392" lon="6.45905">
        <ele>2034.8</ele>
        <time>2021-10-26T12:01:21Z</time>
      </trkpt>
      <trkpt lat="45.28382" lon="6.45883">
        <ele>2033.7</ele>
        <time>2021-10-26T12:01:29Z</time>
      </trkpt>
      <trkpt lat="45.28372" lon="6.45859">
        <ele>2032.4</ele>
        <time>2021-10-26T12:01:35Z</time>
      </trkpt>
      <trkpt lat="45.28369" lon="6.45853">
        <ele>2032.5</ele>
        <time>2021-10-26T12:01:37Z</time>
      </trkpt>
      <trkpt lat="45.28359" lon="6.4583">
        <ele>2033.7</ele>
        <time>2021-10-26T12:01:47Z</time>
      </trkpt>
      <trkpt lat="45.28346" lon="6.45815">
        <ele>2036.2</ele>
        <time>2021-10-26T12:02:18Z</time>
      </trkpt>
      <trkpt lat="45.28343" lon="6.4581">
        <ele>2036.9</ele>
        <time>2021-10-26T12:02:21Z</time>
      </trkpt>
      <trkpt lat="45.2834" lon="6.45799">
        <ele>2038.1</ele>
        <time>2021-10-26T12:02:27Z</time>
      </trkpt>
      <trkpt lat="45.28337" lon="6.45791">
        <ele>2038.9</ele>
        <time>2021-10-26T12:02:31Z</time>
      </trkpt>
      <trkpt lat="45.28334" lon="6.4578">
        <ele>2040.1</ele>
        <time>2021-10-26T12:02:37Z</time>
      </trkpt>
      <trkpt lat="45.28321" lon="6.45766">
        <ele>2041.6</ele>
        <time>2021-10-26T12:02:46Z</time>
      </trkpt>
      <trkpt lat="45.28309" lon="6.45748">
        <ele>2038.1</ele>
        <time>2021-10-26T12:03:05Z</time>
      </trkpt>
      <trkpt lat="45.28305" lon="6.45744">
        <ele>2036.6</ele>
        <time>2021-10-26T12:05:02Z</time>
      </trkpt>
      <trkpt lat="45.28298" lon="6.45748">
        <ele>2033.9</ele>
        <time>2021-10-26T12:05:09Z</time>
      </trkpt>
      <trkpt lat="45.28294" lon="6.45744">
        <ele>2032.2</ele>
        <time>2021-10-26T12:05:10Z</time>
      </trkpt>
      <trkpt lat="45.28281" lon="6.45731">
        <ele>2027.7</ele>
        <time>2021-10-26T12:05:13Z</time>
      </trkpt>
      <trkpt lat="45.28281" lon="6.45743">
        <ele>2024.4</ele>
        <time>2021-10-26T12:06:58Z</time>
      </trkpt>
      <trkpt lat="45.28279" lon="6.45742">
        <ele>2023.7</ele>
        <time>2021-10-26T12:07:00Z</time>
      </trkpt>
      <trkpt lat="45.28263" lon="6.4573">
        <ele>2020.2</ele>
        <time>2021-10-26T12:07:05Z</time>
      </trkpt>
      <trkpt lat="45.28259" lon="6.45726">
        <ele>2019.1</ele>
        <time>2021-10-26T12:07:06Z</time>
      </trkpt>
      <trkpt lat="45.2825" lon="6.45717">
        <ele>2016.9</ele>
        <time>2021-10-26T12:07:08Z</time>
      </trkpt>
      <trkpt lat="45.28233" lon="6.45711">
        <ele>2013.2</ele>
        <time>2021-10-26T12:07:12Z</time>
      </trkpt>
      <trkpt lat="45.28221" lon="6.45684">
        <ele>2008.8</ele>
        <time>2021-10-26T12:07:17Z</time>
      </trkpt>
      <trkpt lat="45.28219" lon="6.45692">
        <ele>2007.6</ele>
        <time>2021-10-26T12:07:23Z</time>
      </trkpt>
      <trkpt lat="45.28218" lon="6.45713">
        <ele>2004.6</ele>
        <time>2021-10-26T12:07:26Z</time>
      </trkpt>
      <trkpt lat="45.28223" lon="6.45734">
        <ele>2001.4</ele>
        <time>2021-10-26T12:08:14Z</time>
      </trkpt>
      <trkpt lat="45.28226" lon="6.45752">
        <ele>1998.7</ele>
        <time>2021-10-26T12:08:22Z</time>
      </trkpt>
      <trkpt lat="45.28225" lon="6.45751">
        <ele>1998.3</ele>
        <time>2021-10-26T12:08:24Z</time>
      </trkpt>
      <trkpt lat="45.28221" lon="6.45743">
        <ele>1996.9</ele>
        <time>2021-10-26T12:08:26Z</time>
      </trkpt>
      <trkpt lat="45.28207" lon="6.45722">
        <ele>1992.7</ele>
        <time>2021-10-26T12:08:31Z</time>
      </trkpt>
      <trkpt lat="45.28205" lon="6.45715">
        <ele>1991.7</ele>
        <time>2021-10-26T12:08:32Z</time>
      </trkpt>
      <trkpt lat="45.28203" lon="6.45709">
        <ele>1990.6</ele>
        <time>2021-10-26T12:08:33Z</time>
      </trkpt>
      <trkpt lat="45.28201" lon="6.45695">
        <ele>1988.5</ele>
        <time>2021-10-26T12:08:35Z</time>
      </trkpt>
      <trkpt lat="45.28186" lon="6.45676">
        <ele>1984.6</ele>
        <time>2021-10-26T12:08:39Z</time>
      </trkpt>
      <trkpt lat="45.28184" lon="6.45684">
        <ele>1983.4</ele>
        <time>2021-10-26T12:09:10Z</time>
      </trkpt>
      <trkpt lat="45.2818" lon="6.45697">
        <ele>1981.3</ele>
        <time>2021-10-26T12:09:28Z</time>
      </trkpt>
      <trkpt lat="45.28162" lon="6.45696">
        <ele>1977.7</ele>
        <time>2021-10-26T12:09:36Z</time>
      </trkpt>
      <trkpt lat="45.2817" lon="6.45706">
        <ele>1975.6</ele>
        <time>2021-10-26T12:09:41Z</time>
      </trkpt>
      <trkpt lat="45.28178" lon="6.45721">
        <ele>1972.8</ele>
        <time>2021-10-26T12:09:44Z</time>
      </trkpt>
      <trkpt lat="45.28183" lon="6.45749">
        <ele>1968.7</ele>
        <time>2021-10-26T12:09:48Z</time>
      </trkpt>
      <trkpt lat="45.28186" lon="6.45775">
        <ele>1964.9</ele>
        <time>2021-10-26T12:09:54Z</time>
      </trkpt>
      <trkpt lat="45.28172" lon="6.4576">
        <ele>1961.4</ele>
        <time>2021-10-26T12:10:09Z</time>
      </trkpt>
      <trkpt lat="45.28156" lon="6.45741">
        <ele>1957.1</ele>
        <time>2021-10-26T12:10:14Z</time>
      </trkpt>
      <trkpt lat="45.28144" lon="6.4574">
        <ele>1954.7</ele>
        <time>2021-10-26T12:12:32Z</time>
      </trkpt>
      <trkpt lat="45.28137" lon="6.45724">
        <ele>1951.9</ele>
        <time>2021-10-26T12:12:52Z</time>
      </trkpt>
      <trkpt lat="45.28131" lon="6.4575">
        <ele>1948</ele>
        <time>2021-10-26T12:12:58Z</time>
      </trkpt>
      <trkpt lat="45.28126" lon="6.45776">
        <ele>1944.1</ele>
        <time>2021-10-26T12:13:03Z</time>
      </trkpt>
      <trkpt lat="45.28126" lon="6.4578">
        <ele>1943.4</ele>
        <time>2021-10-26T12:13:04Z</time>
      </trkpt>
      <trkpt lat="45.28126" lon="6.45785">
        <ele>1942.8</ele>
        <time>2021-10-26T12:13:05Z</time>
      </trkpt>
      <trkpt lat="45.28122" lon="6.45799">
        <ele>1940.5</ele>
        <time>2021-10-26T12:13:09Z</time>
      </trkpt>
      <trkpt lat="45.2811" lon="6.45809">
        <ele>1937.7</ele>
        <time>2021-10-26T12:13:15Z</time>
      </trkpt>
      <trkpt lat="45.28089" lon="6.45815">
        <ele>1933.3</ele>
        <time>2021-10-26T12:13:20Z</time>
      </trkpt>
      <trkpt lat="45.28071" lon="6.45831">
        <ele>1929</ele>
        <time>2021-10-26T12:13:25Z</time>
      </trkpt>
      <trkpt lat="45.28061" lon="6.45855">
        <ele>1924.9</ele>
        <time>2021-10-26T12:13:30Z</time>
      </trkpt>
      <trkpt lat="45.28049" lon="6.45857">
        <ele>1922.5</ele>
        <time>2021-10-26T12:13:35Z</time>
      </trkpt>
      <trkpt lat="45.2804" lon="6.45847">
        <ele>1920.2</ele>
        <time>2021-10-26T12:13:38Z</time>
      </trkpt>
      <trkpt lat="45.28028" lon="6.45831">
        <ele>1916.8</ele>
        <time>2021-10-26T12:13:46Z</time>
      </trkpt>
      <trkpt lat="45.28022" lon="6.45832">
        <ele>1915.4</ele>
        <time>2021-10-26T12:13:48Z</time>
      </trkpt>
      <trkpt lat="45.28005" lon="6.45825">
        <ele>1911.8</ele>
        <time>2021-10-26T12:13:54Z</time>
      </trkpt>
      <trkpt lat="45.28006" lon="6.45821">
        <ele>1911.1</ele>
        <time>2021-10-26T12:15:23Z</time>
      </trkpt>
      <trkpt lat="45.2801" lon="6.45814">
        <ele>1909.8</ele>
        <time>2021-10-26T12:15:40Z</time>
      </trkpt>
      <trkpt lat="45.28005" lon="6.45813">
        <ele>1908.6</ele>
        <time>2021-10-26T12:15:46Z</time>
      </trkpt>
      <trkpt lat="45.28005" lon="6.45811">
        <ele>1908.3</ele>
        <time>2021-10-26T12:15:48Z</time>
      </trkpt>
      <trkpt lat="45.28016" lon="6.45797">
        <ele>1905.3</ele>
        <time>2021-10-26T12:17:06Z</time>
      </trkpt>
      <trkpt lat="45.27999" lon="6.45802">
        <ele>1901.7</ele>
        <time>2021-10-26T12:17:14Z</time>
      </trkpt>
      <trkpt lat="45.27993" lon="6.45806">
        <ele>1900.5</ele>
        <time>2021-10-26T12:17:16Z</time>
      </trkpt>
      <trkpt lat="45.27976" lon="6.45816">
        <ele>1896.6</ele>
        <time>2021-10-26T12:17:20Z</time>
      </trkpt>
      <trkpt lat="45.27966" lon="6.45819">
        <ele>1894.5</ele>
        <time>2021-10-26T12:17:22Z</time>
      </trkpt>
      <trkpt lat="45.27947" lon="6.45818">
        <ele>1890.7</ele>
        <time>2021-10-26T12:17:26Z</time>
      </trkpt>
      <trkpt lat="45.27937" lon="6.45815">
        <ele>1888.6</ele>
        <time>2021-10-26T12:17:29Z</time>
      </trkpt>
      <trkpt lat="45.27935" lon="6.45813">
        <ele>1888</ele>
        <time>2021-10-26T12:17:31Z</time>
      </trkpt>
      <trkpt lat="45.27939" lon="6.45808">
        <ele>1886.9</ele>
        <time>2021-10-26T12:17:38Z</time>
      </trkpt>
      <trkpt lat="45.27933" lon="6.45789">
        <ele>1883.9</ele>
        <time>2021-10-26T12:18:34Z</time>
      </trkpt>
      <trkpt lat="45.27914" lon="6.45787">
        <ele>1880.1</ele>
        <time>2021-10-26T12:19:15Z</time>
      </trkpt>
      <trkpt lat="45.27894" lon="6.45785">
        <ele>1875.8</ele>
        <time>2021-10-26T12:19:37Z</time>
      </trkpt>
      <trkpt lat="45.27875" lon="6.45782">
        <ele>1871.1</ele>
        <time>2021-10-26T12:19:44Z</time>
      </trkpt>
      <trkpt lat="45.27857" lon="6.45781">
        <ele>1866.7</ele>
        <time>2021-10-26T12:19:50Z</time>
      </trkpt>
      <trkpt lat="45.27852" lon="6.45779">
        <ele>1865.7</ele>
        <time>2021-10-26T12:19:51Z</time>
      </trkpt>
      <trkpt lat="45.27844" lon="6.45774">
        <ele>1863.7</ele>
        <time>2021-10-26T12:19:53Z</time>
      </trkpt>
      <trkpt lat="45.27826" lon="6.45766">
        <ele>1860.4</ele>
        <time>2021-10-26T12:19:57Z</time>
      </trkpt>
      <trkpt lat="45.2781" lon="6.45753">
        <ele>1857.3</ele>
        <time>2021-10-26T12:20:20Z</time>
      </trkpt>
      <trkpt lat="45.27795" lon="6.45739">
        <ele>1854.4</ele>
        <time>2021-10-26T12:20:25Z</time>
      </trkpt>
      <trkpt lat="45.27778" lon="6.45739">
        <ele>1851.8</ele>
        <time>2021-10-26T12:20:30Z</time>
      </trkpt>
      <trkpt lat="45.27758" lon="6.45739">
        <ele>1849.4</ele>
        <time>2021-10-26T12:20:36Z</time>
      </trkpt>
      <trkpt lat="45.27742" lon="6.45743">
        <ele>1847.2</ele>
        <time>2021-10-26T12:20:40Z</time>
      </trkpt>
      <trkpt lat="45.27722" lon="6.4574">
        <ele>1844.5</ele>
        <time>2021-10-26T12:20:45Z</time>
      </trkpt>
      <trkpt lat="45.27705" lon="6.45731">
        <ele>1842.1</ele>
        <time>2021-10-26T12:20:49Z</time>
      </trkpt>
      <trkpt lat="45.27693" lon="6.45728">
        <ele>1840.5</ele>
        <time>2021-10-26T12:20:51Z</time>
      </trkpt>
      <trkpt lat="45.27675" lon="6.45721">
        <ele>1837.9</ele>
        <time>2021-10-26T12:20:54Z</time>
      </trkpt>
      <trkpt lat="45.27663" lon="6.45714">
        <ele>1836.2</ele>
        <time>2021-10-26T12:20:56Z</time>
      </trkpt>
      <trkpt lat="45.27647" lon="6.45699">
        <ele>1833.4</ele>
        <time>2021-10-26T12:21:00Z</time>
      </trkpt>
      <trkpt lat="45.27631" lon="6.45685">
        <ele>1831.2</ele>
        <time>2021-10-26T12:21:07Z</time>
      </trkpt>
      <trkpt lat="45.27612" lon="6.45675">
        <ele>1829.4</ele>
        <time>2021-10-26T12:21:17Z</time>
      </trkpt>
      <trkpt lat="45.27606" lon="6.45672">
        <ele>1828.6</ele>
        <time>2021-10-26T12:22:00Z</time>
      </trkpt>
      <trkpt lat="45.27592" lon="6.45662">
        <ele>1825.5</ele>
        <time>2021-10-26T12:22:07Z</time>
      </trkpt>
      <trkpt lat="45.27575" lon="6.45669">
        <ele>1821.6</ele>
        <time>2021-10-26T12:22:12Z</time>
      </trkpt>
      <trkpt lat="45.27557" lon="6.4568">
        <ele>1816.7</ele>
        <time>2021-10-26T12:22:16Z</time>
      </trkpt>
      <trkpt lat="45.27552" lon="6.45684">
        <ele>1815.3</ele>
        <time>2021-10-26T12:22:17Z</time>
      </trkpt>
      <trkpt lat="45.27548" lon="6.45688">
        <ele>1814</ele>
        <time>2021-10-26T12:22:18Z</time>
      </trkpt>
      <trkpt lat="45.27532" lon="6.45708">
        <ele>1808</ele>
        <time>2021-10-26T12:22:23Z</time>
      </trkpt>
      <trkpt lat="45.27528" lon="6.45712">
        <ele>1806.7</ele>
        <time>2021-10-26T12:22:24Z</time>
      </trkpt>
      <trkpt lat="45.27521" lon="6.45719">
        <ele>1804.2</ele>
        <time>2021-10-26T12:22:26Z</time>
      </trkpt>
      <trkpt lat="45.27507" lon="6.45733">
        <ele>1799.3</ele>
        <time>2021-10-26T12:22:30Z</time>
      </trkpt>
      <trkpt lat="45.27492" lon="6.45746">
        <ele>1794.3</ele>
        <time>2021-10-26T12:22:33Z</time>
      </trkpt>
      <trkpt lat="45.27478" lon="6.45757">
        <ele>1790.1</ele>
        <time>2021-10-26T12:22:36Z</time>
      </trkpt>
      <trkpt lat="45.27461" lon="6.45775">
        <ele>1784</ele>
        <time>2021-10-26T12:22:40Z</time>
      </trkpt>
      <trkpt lat="45.27446" lon="6.45773">
        <ele>1780.2</ele>
        <time>2021-10-26T12:22:45Z</time>
      </trkpt>
      <trkpt lat="45.27428" lon="6.45765">
        <ele>1775.8</ele>
        <time>2021-10-26T12:22:52Z</time>
      </trkpt>
      <trkpt lat="45.2741" lon="6.45757">
        <ele>1771.3</ele>
        <time>2021-10-26T12:23:33Z</time>
      </trkpt>
      <trkpt lat="45.27389" lon="6.45751">
        <ele>1765.5</ele>
        <time>2021-10-26T12:23:40Z</time>
      </trkpt>
      <trkpt lat="45.27371" lon="6.45753">
        <ele>1760</ele>
        <time>2021-10-26T12:23:46Z</time>
      </trkpt>
      <trkpt lat="45.27355" lon="6.45764">
        <ele>1754.1</ele>
        <time>2021-10-26T12:23:54Z</time>
      </trkpt>
      <trkpt lat="45.27352" lon="6.45754">
        <ele>1751.6</ele>
        <time>2021-10-26T12:23:58Z</time>
      </trkpt>
      <trkpt lat="45.27349" lon="6.45745">
        <ele>1749.3</ele>
        <time>2021-10-26T12:24:00Z</time>
      </trkpt>
      <trkpt lat="45.2734" lon="6.45732">
        <ele>1744.5</ele>
        <time>2021-10-26T12:24:04Z</time>
      </trkpt>
      <trkpt lat="45.27321" lon="6.45727">
        <ele>1737.6</ele>
        <time>2021-10-26T12:24:10Z</time>
      </trkpt>
      <trkpt lat="45.27314" lon="6.45735">
        <ele>1734</ele>
        <time>2021-10-26T12:24:13Z</time>
      </trkpt>
      <trkpt lat="45.27301" lon="6.45741">
        <ele>1728.6</ele>
        <time>2021-10-26T12:24:18Z</time>
      </trkpt>
      <trkpt lat="45.27297" lon="6.45755">
        <ele>1724.4</ele>
        <time>2021-10-26T12:24:26Z</time>
      </trkpt>
      <trkpt lat="45.27287" lon="6.45756">
        <ele>1720.5</ele>
        <time>2021-10-26T12:25:00Z</time>
      </trkpt>
      <trkpt lat="45.2728" lon="6.45757">
        <ele>1717.9</ele>
        <time>2021-10-26T12:25:04Z</time>
      </trkpt>
      <trkpt lat="45.27267" lon="6.45772">
        <ele>1711.9</ele>
        <time>2021-10-26T12:25:10Z</time>
      </trkpt>
      <trkpt lat="45.27257" lon="6.45756">
        <ele>1706.4</ele>
        <time>2021-10-26T12:25:17Z</time>
      </trkpt>
      <trkpt lat="45.27241" lon="6.45744">
        <ele>1700.8</ele>
        <time>2021-10-26T12:25:25Z</time>
      </trkpt>
      <trkpt lat="45.27222" lon="6.45733">
        <ele>1694.8</ele>
        <time>2021-10-26T12:25:30Z</time>
      </trkpt>
      <trkpt lat="45.27203" lon="6.45725">
        <ele>1689.6</ele>
        <time>2021-10-26T12:25:34Z</time>
      </trkpt>
      <trkpt lat="45.27184" lon="6.45724">
        <ele>1684</ele>
        <time>2021-10-26T12:25:38Z</time>
      </trkpt>
      <trkpt lat="45.27168" lon="6.45728">
        <ele>1678</ele>
        <time>2021-10-26T12:25:42Z</time>
      </trkpt>
      <trkpt lat="45.27147" lon="6.45729">
        <ele>1670.9</ele>
        <time>2021-10-26T12:25:46Z</time>
      </trkpt>
      <trkpt lat="45.27132" lon="6.45729">
        <ele>1666.1</ele>
        <time>2021-10-26T12:25:49Z</time>
      </trkpt>
      <trkpt lat="45.27114" lon="6.45739">
        <ele>1659.7</ele>
        <time>2021-10-26T12:25:53Z</time>
      </trkpt>
      <trkpt lat="45.2711" lon="6.45743">
        <ele>1658</ele>
        <time>2021-10-26T12:25:54Z</time>
      </trkpt>
      <trkpt lat="45.27097" lon="6.45764">
        <ele>1652.4</ele>
        <time>2021-10-26T12:25:58Z</time>
      </trkpt>
      <trkpt lat="45.27092" lon="6.45771">
        <ele>1650.5</ele>
        <time>2021-10-26T12:26:00Z</time>
      </trkpt>
      <trkpt lat="45.27081" lon="6.45777">
        <ele>1646.8</ele>
        <time>2021-10-26T12:26:05Z</time>
      </trkpt>
      <trkpt lat="45.27074" lon="6.45768">
        <ele>1643.8</ele>
        <time>2021-10-26T12:26:09Z</time>
      </trkpt>
      <trkpt lat="45.27072" lon="6.45767">
        <ele>1643.1</ele>
        <time>2021-10-26T12:26:10Z</time>
      </trkpt>
      <trkpt lat="45.27058" lon="6.45782">
        <ele>1637.4</ele>
        <time>2021-10-26T12:26:22Z</time>
      </trkpt>
      <trkpt lat="45.27047" lon="6.45802">
        <ele>1632.7</ele>
        <time>2021-10-26T12:26:32Z</time>
      </trkpt>
      <trkpt lat="45.27033" lon="6.45813">
        <ele>1628.9</ele>
        <time>2021-10-26T12:27:53Z</time>
      </trkpt>
      <trkpt lat="45.27015" lon="6.4582">
        <ele>1624.5</ele>
        <time>2021-10-26T12:28:01Z</time>
      </trkpt>
      <trkpt lat="45.27007" lon="6.4583">
        <ele>1621.8</ele>
        <time>2021-10-26T12:28:08Z</time>
      </trkpt>
      <trkpt lat="45.27004" lon="6.4582">
        <ele>1620</ele>
        <time>2021-10-26T12:28:12Z</time>
      </trkpt>
      <trkpt lat="45.27003" lon="6.45812">
        <ele>1618.9</ele>
        <time>2021-10-26T12:28:14Z</time>
      </trkpt>
      <trkpt lat="45.26992" lon="6.45827">
        <ele>1615.6</ele>
        <time>2021-10-26T12:28:23Z</time>
      </trkpt>
      <trkpt lat="45.26984" lon="6.45835">
        <ele>1613.4</ele>
        <time>2021-10-26T12:28:26Z</time>
      </trkpt>
      <trkpt lat="45.26975" lon="6.45838">
        <ele>1611</ele>
        <time>2021-10-26T12:28:29Z</time>
      </trkpt>
      <trkpt lat="45.26955" lon="6.45832">
        <ele>1606.4</ele>
        <time>2021-10-26T12:28:34Z</time>
      </trkpt>
      <trkpt lat="45.26942" lon="6.45824">
        <ele>1604.5</ele>
        <time>2021-10-26T12:28:38Z</time>
      </trkpt>
      <trkpt lat="45.26931" lon="6.45814">
        <ele>1603.6</ele>
        <time>2021-10-26T12:28:42Z</time>
      </trkpt>
      <trkpt lat="45.2692" lon="6.45822">
        <ele>1602.7</ele>
        <time>2021-10-26T12:28:47Z</time>
      </trkpt>
      <trkpt lat="45.26915" lon="6.45829">
        <ele>1602.2</ele>
        <time>2021-10-26T12:28:50Z</time>
      </trkpt>
      <trkpt lat="45.2691" lon="6.45848">
        <ele>1600.4</ele>
        <time>2021-10-26T12:29:00Z</time>
      </trkpt>
      <trkpt lat="45.26892" lon="6.45855">
        <ele>1596.6</ele>
        <time>2021-10-26T12:29:05Z</time>
      </trkpt>
      <trkpt lat="45.26877" lon="6.45851">
        <ele>1593.7</ele>
        <time>2021-10-26T12:29:10Z</time>
      </trkpt>
      <trkpt lat="45.26858" lon="6.45844">
        <ele>1591.8</ele>
        <time>2021-10-26T12:29:18Z</time>
      </trkpt>
      <trkpt lat="45.2684" lon="6.45842">
        <ele>1591.4</ele>
        <time>2021-10-26T12:29:34Z</time>
      </trkpt>
      <trkpt lat="45.26819" lon="6.4584">
        <ele>1589.8</ele>
        <time>2021-10-26T12:29:40Z</time>
      </trkpt>
      <trkpt lat="45.2681" lon="6.45838">
        <ele>1588.2</ele>
        <time>2021-10-26T12:29:42Z</time>
      </trkpt>
      <trkpt lat="45.26799" lon="6.45835">
        <ele>1585.6</ele>
        <time>2021-10-26T12:29:44Z</time>
      </trkpt>
      <trkpt lat="45.26778" lon="6.45832">
        <ele>1580.7</ele>
        <time>2021-10-26T12:29:47Z</time>
      </trkpt>
      <trkpt lat="45.26772" lon="6.45831">
        <ele>1579.7</ele>
        <time>2021-10-26T12:29:48Z</time>
      </trkpt>
      <trkpt lat="45.26756" lon="6.45823">
        <ele>1577.6</ele>
        <time>2021-10-26T12:29:58Z</time>
      </trkpt>
      <trkpt lat="45.26742" lon="6.45834">
        <ele>1575.4</ele>
        <time>2021-10-26T12:30:04Z</time>
      </trkpt>
      <trkpt lat="45.26733" lon="6.45834">
        <ele>1573.6</ele>
        <time>2021-10-26T12:30:06Z</time>
      </trkpt>
      <trkpt lat="45.26722" lon="6.45835">
        <ele>1570.4</ele>
        <time>2021-10-26T12:30:08Z</time>
      </trkpt>
      <trkpt lat="45.26711" lon="6.45837">
        <ele>1567</ele>
        <time>2021-10-26T12:30:10Z</time>
      </trkpt>
      <trkpt lat="45.26693" lon="6.45835">
        <ele>1563</ele>
        <time>2021-10-26T12:30:13Z</time>
      </trkpt>
      <trkpt lat="45.26677" lon="6.45836">
        <ele>1560.8</ele>
        <time>2021-10-26T12:30:16Z</time>
      </trkpt>
      <trkpt lat="45.26673" lon="6.45837">
        <ele>1560.2</ele>
        <time>2021-10-26T12:30:17Z</time>
      </trkpt>
      <trkpt lat="45.2665" lon="6.4584">
        <ele>1557</ele>
        <time>2021-10-26T12:30:21Z</time>
      </trkpt>
      <trkpt lat="45.2663" lon="6.45836">
        <ele>1551.3</ele>
        <time>2021-10-26T12:30:25Z</time>
      </trkpt>
      <trkpt lat="45.26625" lon="6.45836">
        <ele>1550.6</ele>
        <time>2021-10-26T12:30:26Z</time>
      </trkpt>
      <trkpt lat="45.26604" lon="6.45835">
        <ele>1549.4</ele>
        <time>2021-10-26T12:30:31Z</time>
      </trkpt>
      <trkpt lat="45.26598" lon="6.45835">
        <ele>1549</ele>
        <time>2021-10-26T12:30:32Z</time>
      </trkpt>
      <trkpt lat="45.26577" lon="6.45828">
        <ele>1545.4</ele>
        <time>2021-10-26T12:30:35Z</time>
      </trkpt>
      <trkpt lat="45.26554" lon="6.45819">
        <ele>1540.1</ele>
        <time>2021-10-26T12:30:38Z</time>
      </trkpt>
      <trkpt lat="45.26536" lon="6.45812">
        <ele>1537.3</ele>
        <time>2021-10-26T12:30:41Z</time>
      </trkpt>
      <trkpt lat="45.26517" lon="6.458">
        <ele>1535.5</ele>
        <time>2021-10-26T12:30:45Z</time>
      </trkpt>
      <trkpt lat="45.265" lon="6.45791">
        <ele>1531.7</ele>
        <time>2021-10-26T12:30:50Z</time>
      </trkpt>
      <trkpt lat="45.26482" lon="6.45782">
        <ele>1527.4</ele>
        <time>2021-10-26T12:30:56Z</time>
      </trkpt>
      <trkpt lat="45.26466" lon="6.45778">
        <ele>1524.1</ele>
        <time>2021-10-26T12:31:48Z</time>
      </trkpt>
      <trkpt lat="45.26448" lon="6.45771">
        <ele>1520.8</ele>
        <time>2021-10-26T12:31:52Z</time>
      </trkpt>
      <trkpt lat="45.26434" lon="6.45764">
        <ele>1518.5</ele>
        <time>2021-10-26T12:31:55Z</time>
      </trkpt>
      <trkpt lat="45.26416" lon="6.45753">
        <ele>1511.5</ele>
        <time>2021-10-26T12:31:59Z</time>
      </trkpt>
      <trkpt lat="45.26411" lon="6.45751">
        <ele>1509.1</ele>
        <time>2021-10-26T12:32:00Z</time>
      </trkpt>
      <trkpt lat="45.26397" lon="6.45741">
        <ele>1504.2</ele>
        <time>2021-10-26T12:32:03Z</time>
      </trkpt>
      <trkpt lat="45.26389" lon="6.45729">
        <ele>1501.8</ele>
        <time>2021-10-26T12:32:12Z</time>
      </trkpt>
      <trkpt lat="45.26371" lon="6.4572">
        <ele>1498</ele>
        <time>2021-10-26T12:32:17Z</time>
      </trkpt>
      <trkpt lat="45.26352" lon="6.45713">
        <ele>1493.5</ele>
        <time>2021-10-26T12:32:20Z</time>
      </trkpt>
      <trkpt lat="45.26347" lon="6.45711">
        <ele>1492.2</ele>
        <time>2021-10-26T12:32:21Z</time>
      </trkpt>
      <trkpt lat="45.26329" lon="6.45706">
        <ele>1488.2</ele>
        <time>2021-10-26T12:32:25Z</time>
      </trkpt>
      <trkpt lat="45.2631" lon="6.45698">
        <ele>1482.5</ele>
        <time>2021-10-26T12:32:30Z</time>
      </trkpt>
      <trkpt lat="45.26307" lon="6.45701">
        <ele>1481.7</ele>
        <time>2021-10-26T12:32:32Z</time>
      </trkpt>
      <trkpt lat="45.26307" lon="6.45712">
        <ele>1480</ele>
        <time>2021-10-26T12:32:36Z</time>
      </trkpt>
      <trkpt lat="45.26318" lon="6.45732">
        <ele>1476.7</ele>
        <time>2021-10-26T12:32:49Z</time>
      </trkpt>
      <trkpt lat="45.26328" lon="6.45737">
        <ele>1474.7</ele>
        <time>2021-10-26T12:32:52Z</time>
      </trkpt>
      <trkpt lat="45.26343" lon="6.45753">
        <ele>1471.9</ele>
        <time>2021-10-26T12:32:58Z</time>
      </trkpt>
      <trkpt lat="45.26357" lon="6.45774">
        <ele>1467.9</ele>
        <time>2021-10-26T12:33:24Z</time>
      </trkpt>
      <trkpt lat="45.26368" lon="6.45795">
        <ele>1465.6</ele>
        <time>2021-10-26T12:33:34Z</time>
      </trkpt>
      <trkpt lat="45.26377" lon="6.45809">
        <ele>1466</ele>
        <time>2021-10-26T12:33:40Z</time>
      </trkpt>
      <trkpt lat="45.26383" lon="6.45833">
        <ele>1467.6</ele>
        <time>2021-10-26T12:33:52Z</time>
      </trkpt>
      <trkpt lat="45.26387" lon="6.45859">
        <ele>1468.3</ele>
        <time>2021-10-26T12:34:04Z</time>
      </trkpt>
      <trkpt lat="45.26396" lon="6.4588">
        <ele>1469.2</ele>
        <time>2021-10-26T12:34:14Z</time>
      </trkpt>
      <trkpt lat="45.26411" lon="6.45897">
        <ele>1470.6</ele>
        <time>2021-10-26T12:34:27Z</time>
      </trkpt>
      <trkpt lat="45.26425" lon="6.45913">
        <ele>1472.3</ele>
        <time>2021-10-26T12:34:52Z</time>
      </trkpt>
      <trkpt lat="45.26434" lon="6.45936">
        <ele>1473.5</ele>
        <time>2021-10-26T12:35:42Z</time>
      </trkpt>
      <trkpt lat="45.26449" lon="6.45951">
        <ele>1472.4</ele>
        <time>2021-10-26T12:35:55Z</time>
      </trkpt>
      <trkpt lat="45.26453" lon="6.45954">
        <ele>1471.9</ele>
        <time>2021-10-26T12:35:58Z</time>
      </trkpt>
      <trkpt lat="45.26463" lon="6.45981">
        <ele>1469.9</ele>
        <time>2021-10-26T12:36:13Z</time>
      </trkpt>
      <trkpt lat="45.26449" lon="6.45999">
        <ele>1470</ele>
        <time>2021-10-26T12:36:29Z</time>
      </trkpt>
      <trkpt lat="45.26433" lon="6.45991">
        <ele>1468.9</ele>
        <time>2021-10-26T12:37:06Z</time>
      </trkpt>
      <trkpt lat="45.26417" lon="6.45977">
        <ele>1466.4</ele>
        <time>2021-10-26T12:37:10Z</time>
      </trkpt>
      <trkpt lat="45.26413" lon="6.45975">
        <ele>1465.7</ele>
        <time>2021-10-26T12:37:11Z</time>
      </trkpt>
      <trkpt lat="45.26399" lon="6.4597">
        <ele>1463.2</ele>
        <time>2021-10-26T12:37:14Z</time>
      </trkpt>
      <trkpt lat="45.2638" lon="6.45974">
        <ele>1460.6</ele>
        <time>2021-10-26T12:37:18Z</time>
      </trkpt>
      <trkpt lat="45.26361" lon="6.45983">
        <ele>1458.9</ele>
        <time>2021-10-26T12:37:22Z</time>
      </trkpt>
      <trkpt lat="45.26346" lon="6.45989">
        <ele>1458.5</ele>
        <time>2021-10-26T12:37:25Z</time>
      </trkpt>
      <trkpt lat="45.26326" lon="6.45993">
        <ele>1458.5</ele>
        <time>2021-10-26T12:37:31Z</time>
      </trkpt>
      <trkpt lat="45.26306" lon="6.45996">
        <ele>1457.9</ele>
        <time>2021-10-26T12:37:35Z</time>
      </trkpt>
      <trkpt lat="45.26301" lon="6.45997">
        <ele>1457.6</ele>
        <time>2021-10-26T12:37:36Z</time>
      </trkpt>
      <trkpt lat="45.26282" lon="6.46013">
        <ele>1456.7</ele>
        <time>2021-10-26T12:37:40Z</time>
      </trkpt>
      <trkpt lat="45.2628" lon="6.46017">
        <ele>1456.7</ele>
        <time>2021-10-26T12:37:41Z</time>
      </trkpt>
      <trkpt lat="45.26264" lon="6.46036">
        <ele>1456.7</ele>
        <time>2021-10-26T12:37:48Z</time>
      </trkpt>
      <trkpt lat="45.26245" lon="6.46039">
        <ele>1456.2</ele>
        <time>2021-10-26T12:37:57Z</time>
      </trkpt>
      <trkpt lat="45.2623" lon="6.46053">
        <ele>1455.1</ele>
        <time>2021-10-26T12:38:05Z</time>
      </trkpt>
      <trkpt lat="45.26222" lon="6.46081">
        <ele>1455.4</ele>
        <time>2021-10-26T12:38:10Z</time>
      </trkpt>
      <trkpt lat="45.26215" lon="6.4611">
        <ele>1456.3</ele>
        <time>2021-10-26T12:38:15Z</time>
      </trkpt>
      <trkpt lat="45.26208" lon="6.46136">
        <ele>1457</ele>
        <time>2021-10-26T12:38:20Z</time>
      </trkpt>
      <trkpt lat="45.26204" lon="6.4616">
        <ele>1457.7</ele>
        <time>2021-10-26T12:38:25Z</time>
      </trkpt>
      <trkpt lat="45.262" lon="6.46186">
        <ele>1457.8</ele>
        <time>2021-10-26T12:38:29Z</time>
      </trkpt>
      <trkpt lat="45.26203" lon="6.46212">
        <ele>1458.2</ele>
        <time>2021-10-26T12:38:32Z</time>
      </trkpt>
      <trkpt lat="45.26208" lon="6.46228">
        <ele>1458.9</ele>
        <time>2021-10-26T12:38:34Z</time>
      </trkpt>
      <trkpt lat="45.26216" lon="6.46247">
        <ele>1460.4</ele>
        <time>2021-10-26T12:38:37Z</time>
      </trkpt>
      <trkpt lat="45.2623" lon="6.46269">
        <ele>1463</ele>
        <time>2021-10-26T12:38:42Z</time>
      </trkpt>
      <trkpt lat="45.26242" lon="6.46291">
        <ele>1464.9</ele>
        <time>2021-10-26T12:38:48Z</time>
      </trkpt>
      <trkpt lat="45.26241" lon="6.46297">
        <ele>1465.2</ele>
        <time>2021-10-26T12:38:50Z</time>
      </trkpt>
    </trkseg>
  </trk>
</gpx>